<?xml version="1.0" encoding="UTF-8" standalone="no" ?>
<gpx xmlns="http://www.topografix.com/GPX/1/1" xmlns:xsi="http://www.w3.org/2001/XMLSchema-instance" xsi:schemaLocation="http://www.topografix.com/GPX/1/1 http://www.topografix.com/GPX/1/1/gpx.xsd" version="1.1" creator="VisuGPX - https://www.visugpx.com">
  <metadata>
    <name>Pipay</name>
    <desc><![CDATA[
]]></desc>
  </metadata>
  <trk>
    <name><![CDATA[Pipay_1]]></name>
    <extensions>
      <line xmlns="http://www.topografix.com/GPX/gpx_style/0/2">
        <color>0000FF</color>
        <width>4</width>
      </line>
    </extensions>
    <trkseg>
      <trkpt lat="45.26443" lon="6.01533">
        <ele>1561.4549560547</ele>
        <time>2017-11-22T07:33:09Z</time>
      </trkpt>
      <trkpt lat="45.26446" lon="6.01541">
        <ele>1576.4549560547</ele>
        <time>2017-11-22T07:33:14Z</time>
      </trkpt>
      <trkpt lat="45.26444" lon="6.01548">
        <ele>1576.4549560547</ele>
        <time>2017-11-22T07:33:19Z</time>
      </trkpt>
      <trkpt lat="45.26446" lon="6.01558">
        <ele>1599.4549560547</ele>
        <time>2017-11-22T07:33:20Z</time>
      </trkpt>
      <trkpt lat="45.26443" lon="6.01549">
        <ele>1574.4549560547</ele>
        <time>2017-11-22T07:33:21Z</time>
      </trkpt>
      <trkpt lat="45.26449" lon="6.01552">
        <ele>1568.4549560547</ele>
        <time>2017-11-22T07:33:24Z</time>
      </trkpt>
      <trkpt lat="45.26453" lon="6.01556">
        <ele>1571.4549560547</ele>
        <time>2017-11-22T07:33:29Z</time>
      </trkpt>
      <trkpt lat="45.26457" lon="6.01559">
        <ele>1572.4549560547</ele>
        <time>2017-11-22T07:33:32Z</time>
      </trkpt>
      <trkpt lat="45.2646" lon="6.01565">
        <ele>1569.4549560547</ele>
        <time>2017-11-22T07:33:37Z</time>
      </trkpt>
      <trkpt lat="45.2646" lon="6.01572">
        <ele>1567.4549560547</ele>
        <time>2017-11-22T07:33:57Z</time>
      </trkpt>
      <trkpt lat="45.2646" lon="6.0158">
        <ele>1565.4549560547</ele>
        <time>2017-11-22T07:34:01Z</time>
      </trkpt>
      <trkpt lat="45.26458" lon="6.01587">
        <ele>1563.4549560547</ele>
        <time>2017-11-22T07:34:05Z</time>
      </trkpt>
      <trkpt lat="45.26453" lon="6.01593">
        <ele>1566.4549560547</ele>
        <time>2017-11-22T07:34:08Z</time>
      </trkpt>
      <trkpt lat="45.26449" lon="6.01597">
        <ele>1568.4549560547</ele>
        <time>2017-11-22T07:34:11Z</time>
      </trkpt>
      <trkpt lat="45.26444" lon="6.016">
        <ele>1568.4549560547</ele>
        <time>2017-11-22T07:34:14Z</time>
      </trkpt>
      <trkpt lat="45.26441" lon="6.01604">
        <ele>1568.4549560547</ele>
        <time>2017-11-22T07:34:17Z</time>
      </trkpt>
      <trkpt lat="45.26436" lon="6.01607">
        <ele>1567.4549560547</ele>
        <time>2017-11-22T07:34:22Z</time>
      </trkpt>
      <trkpt lat="45.26433" lon="6.01612">
        <ele>1568.4549560547</ele>
        <time>2017-11-22T07:34:25Z</time>
      </trkpt>
      <trkpt lat="45.26427" lon="6.01614">
        <ele>1566.4549560547</ele>
        <time>2017-11-22T07:34:28Z</time>
      </trkpt>
      <trkpt lat="45.26423" lon="6.01617">
        <ele>1565.4549560547</ele>
        <time>2017-11-22T07:34:31Z</time>
      </trkpt>
      <trkpt lat="45.26417" lon="6.0162">
        <ele>1565.4549560547</ele>
        <time>2017-11-22T07:34:35Z</time>
      </trkpt>
      <trkpt lat="45.26412" lon="6.01624">
        <ele>1565.4549560547</ele>
        <time>2017-11-22T07:34:39Z</time>
      </trkpt>
      <trkpt lat="45.26408" lon="6.0163">
        <ele>1567.4549560547</ele>
        <time>2017-11-22T07:34:43Z</time>
      </trkpt>
      <trkpt lat="45.26406" lon="6.01636">
        <ele>1568.4549560547</ele>
        <time>2017-11-22T07:34:47Z</time>
      </trkpt>
      <trkpt lat="45.26403" lon="6.01642">
        <ele>1568.4549560547</ele>
        <time>2017-11-22T07:34:51Z</time>
      </trkpt>
      <trkpt lat="45.26399" lon="6.01649">
        <ele>1568.4549560547</ele>
        <time>2017-11-22T07:34:55Z</time>
      </trkpt>
      <trkpt lat="45.26397" lon="6.01655">
        <ele>1568.4549560547</ele>
        <time>2017-11-22T07:34:58Z</time>
      </trkpt>
      <trkpt lat="45.26393" lon="6.01661">
        <ele>1569.4549560547</ele>
        <time>2017-11-22T07:35:02Z</time>
      </trkpt>
      <trkpt lat="45.2639" lon="6.01668">
        <ele>1569.4549560547</ele>
        <time>2017-11-22T07:35:06Z</time>
      </trkpt>
      <trkpt lat="45.26388" lon="6.01673">
        <ele>1571.4549560547</ele>
        <time>2017-11-22T07:35:10Z</time>
      </trkpt>
      <trkpt lat="45.26385" lon="6.01679">
        <ele>1571.4549560547</ele>
        <time>2017-11-22T07:35:15Z</time>
      </trkpt>
      <trkpt lat="45.26384" lon="6.01685">
        <ele>1573.4549560547</ele>
        <time>2017-11-22T07:35:19Z</time>
      </trkpt>
      <trkpt lat="45.26383" lon="6.01692">
        <ele>1575.4549560547</ele>
        <time>2017-11-22T07:35:23Z</time>
      </trkpt>
      <trkpt lat="45.2638" lon="6.01698">
        <ele>1576.4549560547</ele>
        <time>2017-11-22T07:35:29Z</time>
      </trkpt>
      <trkpt lat="45.26379" lon="6.01706">
        <ele>1576.4549560547</ele>
        <time>2017-11-22T07:35:34Z</time>
      </trkpt>
      <trkpt lat="45.26381" lon="6.01714">
        <ele>1576.4549560547</ele>
        <time>2017-11-22T07:35:39Z</time>
      </trkpt>
      <trkpt lat="45.2638" lon="6.01721">
        <ele>1578.4549560547</ele>
        <time>2017-11-22T07:35:42Z</time>
      </trkpt>
      <trkpt lat="45.26381" lon="6.01728">
        <ele>1578.4549560547</ele>
        <time>2017-11-22T07:35:46Z</time>
      </trkpt>
      <trkpt lat="45.26383" lon="6.01735">
        <ele>1582.4549560547</ele>
        <time>2017-11-22T07:35:51Z</time>
      </trkpt>
      <trkpt lat="45.26384" lon="6.01742">
        <ele>1582.4549560547</ele>
        <time>2017-11-22T07:35:56Z</time>
      </trkpt>
      <trkpt lat="45.26385" lon="6.0175">
        <ele>1581.4549560547</ele>
        <time>2017-11-22T07:36:02Z</time>
      </trkpt>
      <trkpt lat="45.26384" lon="6.01756">
        <ele>1581.4549560547</ele>
        <time>2017-11-22T07:36:06Z</time>
      </trkpt>
      <trkpt lat="45.26384" lon="6.01764">
        <ele>1583.4549560547</ele>
        <time>2017-11-22T07:36:10Z</time>
      </trkpt>
      <trkpt lat="45.26382" lon="6.01772">
        <ele>1584.4549560547</ele>
        <time>2017-11-22T07:36:15Z</time>
      </trkpt>
      <trkpt lat="45.26381" lon="6.01778">
        <ele>1585.4549560547</ele>
        <time>2017-11-22T07:36:20Z</time>
      </trkpt>
      <trkpt lat="45.26382" lon="6.01786">
        <ele>1588.4549560547</ele>
        <time>2017-11-22T07:36:25Z</time>
      </trkpt>
      <trkpt lat="45.26383" lon="6.01793">
        <ele>1590.4549560547</ele>
        <time>2017-11-22T07:36:30Z</time>
      </trkpt>
      <trkpt lat="45.26381" lon="6.018">
        <ele>1593.4549560547</ele>
        <time>2017-11-22T07:36:34Z</time>
      </trkpt>
      <trkpt lat="45.26379" lon="6.01808">
        <ele>1594.4549560547</ele>
        <time>2017-11-22T07:36:39Z</time>
      </trkpt>
      <trkpt lat="45.26377" lon="6.01814">
        <ele>1594.4549560547</ele>
        <time>2017-11-22T07:36:44Z</time>
      </trkpt>
      <trkpt lat="45.26376" lon="6.01821">
        <ele>1596.4549560547</ele>
        <time>2017-11-22T07:36:49Z</time>
      </trkpt>
      <trkpt lat="45.26372" lon="6.01827">
        <ele>1596.4549560547</ele>
        <time>2017-11-22T07:36:54Z</time>
      </trkpt>
      <trkpt lat="45.26371" lon="6.01833">
        <ele>1598.4549560547</ele>
        <time>2017-11-22T07:36:58Z</time>
      </trkpt>
      <trkpt lat="45.26369" lon="6.01841">
        <ele>1598.4549560547</ele>
        <time>2017-11-22T07:37:04Z</time>
      </trkpt>
      <trkpt lat="45.26366" lon="6.01846">
        <ele>1599.4549560547</ele>
        <time>2017-11-22T07:37:09Z</time>
      </trkpt>
      <trkpt lat="45.26362" lon="6.0185">
        <ele>1599.4549560547</ele>
        <time>2017-11-22T07:37:13Z</time>
      </trkpt>
      <trkpt lat="45.26358" lon="6.01853">
        <ele>1599.4549560547</ele>
        <time>2017-11-22T07:37:17Z</time>
      </trkpt>
      <trkpt lat="45.26354" lon="6.01855">
        <ele>1600.4549560547</ele>
        <time>2017-11-22T07:37:22Z</time>
      </trkpt>
      <trkpt lat="45.26349" lon="6.01857">
        <ele>1602.4549560547</ele>
        <time>2017-11-22T07:37:27Z</time>
      </trkpt>
      <trkpt lat="45.26345" lon="6.01857">
        <ele>1604.4549560547</ele>
        <time>2017-11-22T07:37:31Z</time>
      </trkpt>
      <trkpt lat="45.26341" lon="6.01862">
        <ele>1609.4549560547</ele>
        <time>2017-11-22T07:37:38Z</time>
      </trkpt>
      <trkpt lat="45.26336" lon="6.01864">
        <ele>1611.4549560547</ele>
        <time>2017-11-22T07:37:45Z</time>
      </trkpt>
      <trkpt lat="45.26331" lon="6.01864">
        <ele>1612.4549560547</ele>
        <time>2017-11-22T07:37:49Z</time>
      </trkpt>
      <trkpt lat="45.26328" lon="6.01868">
        <ele>1614.4549560547</ele>
        <time>2017-11-22T07:37:55Z</time>
      </trkpt>
      <trkpt lat="45.26324" lon="6.01871">
        <ele>1616.4549560547</ele>
        <time>2017-11-22T07:38:01Z</time>
      </trkpt>
      <trkpt lat="45.26322" lon="6.01877">
        <ele>1618.4549560547</ele>
        <time>2017-11-22T07:38:07Z</time>
      </trkpt>
      <trkpt lat="45.26321" lon="6.01884">
        <ele>1622.4549560547</ele>
        <time>2017-11-22T07:38:14Z</time>
      </trkpt>
      <trkpt lat="45.26316" lon="6.01886">
        <ele>1619.4549560547</ele>
        <time>2017-11-22T07:38:17Z</time>
      </trkpt>
      <trkpt lat="45.26313" lon="6.01891">
        <ele>1619.4549560547</ele>
        <time>2017-11-22T07:38:22Z</time>
      </trkpt>
      <trkpt lat="45.2631" lon="6.01896">
        <ele>1619.4549560547</ele>
        <time>2017-11-22T07:38:27Z</time>
      </trkpt>
      <trkpt lat="45.26306" lon="6.01901">
        <ele>1618.4549560547</ele>
        <time>2017-11-22T07:38:32Z</time>
      </trkpt>
      <trkpt lat="45.26303" lon="6.01907">
        <ele>1618.4549560547</ele>
        <time>2017-11-22T07:38:38Z</time>
      </trkpt>
      <trkpt lat="45.26299" lon="6.01913">
        <ele>1619.4549560547</ele>
        <time>2017-11-22T07:38:44Z</time>
      </trkpt>
      <trkpt lat="45.26297" lon="6.01919">
        <ele>1620.4549560547</ele>
        <time>2017-11-22T07:38:50Z</time>
      </trkpt>
      <trkpt lat="45.26295" lon="6.01925">
        <ele>1624.4549560547</ele>
        <time>2017-11-22T07:38:55Z</time>
      </trkpt>
      <trkpt lat="45.26292" lon="6.0193">
        <ele>1626.4549560547</ele>
        <time>2017-11-22T07:39:00Z</time>
      </trkpt>
      <trkpt lat="45.2629" lon="6.01937">
        <ele>1628.4549560547</ele>
        <time>2017-11-22T07:39:05Z</time>
      </trkpt>
      <trkpt lat="45.26286" lon="6.01941">
        <ele>1630.4549560547</ele>
        <time>2017-11-22T07:39:11Z</time>
      </trkpt>
      <trkpt lat="45.26282" lon="6.01945">
        <ele>1632.4549560547</ele>
        <time>2017-11-22T07:39:18Z</time>
      </trkpt>
      <trkpt lat="45.26278" lon="6.01948">
        <ele>1632.4549560547</ele>
        <time>2017-11-22T07:39:22Z</time>
      </trkpt>
      <trkpt lat="45.26273" lon="6.01952">
        <ele>1634.4549560547</ele>
        <time>2017-11-22T07:39:28Z</time>
      </trkpt>
      <trkpt lat="45.26269" lon="6.01954">
        <ele>1635.4549560547</ele>
        <time>2017-11-22T07:39:33Z</time>
      </trkpt>
      <trkpt lat="45.26264" lon="6.01957">
        <ele>1637.4549560547</ele>
        <time>2017-11-22T07:39:40Z</time>
      </trkpt>
      <trkpt lat="45.2626" lon="6.01959">
        <ele>1639.4549560547</ele>
        <time>2017-11-22T07:39:45Z</time>
      </trkpt>
      <trkpt lat="45.26256" lon="6.01962">
        <ele>1641.4549560547</ele>
        <time>2017-11-22T07:39:50Z</time>
      </trkpt>
      <trkpt lat="45.26252" lon="6.01966">
        <ele>1643.4549560547</ele>
        <time>2017-11-22T07:39:55Z</time>
      </trkpt>
      <trkpt lat="45.26247" lon="6.01966">
        <ele>1646.4549560547</ele>
        <time>2017-11-22T07:40:00Z</time>
      </trkpt>
      <trkpt lat="45.26242" lon="6.01964">
        <ele>1647.4549560547</ele>
        <time>2017-11-22T07:40:05Z</time>
      </trkpt>
      <trkpt lat="45.26238" lon="6.01964">
        <ele>1650.4549560547</ele>
        <time>2017-11-22T07:40:10Z</time>
      </trkpt>
      <trkpt lat="45.26233" lon="6.01963">
        <ele>1653.4549560547</ele>
        <time>2017-11-22T07:40:17Z</time>
      </trkpt>
      <trkpt lat="45.26227" lon="6.01961">
        <ele>1655.4549560547</ele>
        <time>2017-11-22T07:40:22Z</time>
      </trkpt>
      <trkpt lat="45.26222" lon="6.01959">
        <ele>1659.4549560547</ele>
        <time>2017-11-22T07:40:27Z</time>
      </trkpt>
      <trkpt lat="45.26218" lon="6.01958">
        <ele>1661.4549560547</ele>
        <time>2017-11-22T07:40:33Z</time>
      </trkpt>
      <trkpt lat="45.26212" lon="6.01959">
        <ele>1662.4549560547</ele>
        <time>2017-11-22T07:40:40Z</time>
      </trkpt>
      <trkpt lat="45.26208" lon="6.01961">
        <ele>1663.4549560547</ele>
        <time>2017-11-22T07:40:49Z</time>
      </trkpt>
      <trkpt lat="45.26203" lon="6.0196">
        <ele>1665.4549560547</ele>
        <time>2017-11-22T07:40:53Z</time>
      </trkpt>
      <trkpt lat="45.26198" lon="6.01962">
        <ele>1664.4549560547</ele>
        <time>2017-11-22T07:40:59Z</time>
      </trkpt>
      <trkpt lat="45.26195" lon="6.01966">
        <ele>1665.4549560547</ele>
        <time>2017-11-22T07:41:05Z</time>
      </trkpt>
      <trkpt lat="45.26192" lon="6.01971">
        <ele>1667.4549560547</ele>
        <time>2017-11-22T07:41:10Z</time>
      </trkpt>
      <trkpt lat="45.26187" lon="6.01974">
        <ele>1668.4549560547</ele>
        <time>2017-11-22T07:41:16Z</time>
      </trkpt>
      <trkpt lat="45.26185" lon="6.01981">
        <ele>1668.4549560547</ele>
        <time>2017-11-22T07:41:21Z</time>
      </trkpt>
      <trkpt lat="45.26184" lon="6.01989">
        <ele>1669.4549560547</ele>
        <time>2017-11-22T07:41:30Z</time>
      </trkpt>
      <trkpt lat="45.26182" lon="6.01995">
        <ele>1670.4549560547</ele>
        <time>2017-11-22T07:41:35Z</time>
      </trkpt>
      <trkpt lat="45.26183" lon="6.02003">
        <ele>1673.4549560547</ele>
        <time>2017-11-22T07:42:47Z</time>
      </trkpt>
      <trkpt lat="45.26184" lon="6.0201">
        <ele>1671.4549560547</ele>
        <time>2017-11-22T07:42:53Z</time>
      </trkpt>
      <trkpt lat="45.26183" lon="6.02017">
        <ele>1671.4549560547</ele>
        <time>2017-11-22T07:42:58Z</time>
      </trkpt>
      <trkpt lat="45.26185" lon="6.02024">
        <ele>1673.4549560547</ele>
        <time>2017-11-22T07:43:03Z</time>
      </trkpt>
      <trkpt lat="45.26185" lon="6.02031">
        <ele>1675.4549560547</ele>
        <time>2017-11-22T07:43:06Z</time>
      </trkpt>
      <trkpt lat="45.26185" lon="6.02038">
        <ele>1675.4549560547</ele>
        <time>2017-11-22T07:43:09Z</time>
      </trkpt>
      <trkpt lat="45.26186" lon="6.02046">
        <ele>1675.4549560547</ele>
        <time>2017-11-22T07:43:13Z</time>
      </trkpt>
      <trkpt lat="45.26187" lon="6.02053">
        <ele>1674.4549560547</ele>
        <time>2017-11-22T07:43:16Z</time>
      </trkpt>
      <trkpt lat="45.26187" lon="6.02061">
        <ele>1673.4549560547</ele>
        <time>2017-11-22T07:43:20Z</time>
      </trkpt>
      <trkpt lat="45.26187" lon="6.0207">
        <ele>1671.4549560547</ele>
        <time>2017-11-22T07:43:24Z</time>
      </trkpt>
      <trkpt lat="45.26188" lon="6.02078">
        <ele>1669.4549560547</ele>
        <time>2017-11-22T07:43:29Z</time>
      </trkpt>
      <trkpt lat="45.26188" lon="6.02084">
        <ele>1669.4549560547</ele>
        <time>2017-11-22T07:43:32Z</time>
      </trkpt>
      <trkpt lat="45.26189" lon="6.02091">
        <ele>1669.4549560547</ele>
        <time>2017-11-22T07:43:35Z</time>
      </trkpt>
      <trkpt lat="45.26189" lon="6.02098">
        <ele>1670.4549560547</ele>
        <time>2017-11-22T07:43:39Z</time>
      </trkpt>
      <trkpt lat="45.2619" lon="6.02107">
        <ele>1672.4549560547</ele>
        <time>2017-11-22T07:43:42Z</time>
      </trkpt>
      <trkpt lat="45.26191" lon="6.02113">
        <ele>1671.4549560547</ele>
        <time>2017-11-22T07:43:45Z</time>
      </trkpt>
      <trkpt lat="45.26191" lon="6.0212">
        <ele>1670.4549560547</ele>
        <time>2017-11-22T07:43:48Z</time>
      </trkpt>
      <trkpt lat="45.26191" lon="6.02129">
        <ele>1671.4549560547</ele>
        <time>2017-11-22T07:43:52Z</time>
      </trkpt>
      <trkpt lat="45.26192" lon="6.02138">
        <ele>1672.4549560547</ele>
        <time>2017-11-22T07:43:56Z</time>
      </trkpt>
      <trkpt lat="45.26194" lon="6.02147">
        <ele>1672.4549560547</ele>
        <time>2017-11-22T07:44:00Z</time>
      </trkpt>
      <trkpt lat="45.26196" lon="6.02153">
        <ele>1673.4549560547</ele>
        <time>2017-11-22T07:44:03Z</time>
      </trkpt>
      <trkpt lat="45.26198" lon="6.02159">
        <ele>1678.4549560547</ele>
        <time>2017-11-22T07:44:07Z</time>
      </trkpt>
      <trkpt lat="45.26198" lon="6.02165">
        <ele>1679.4549560547</ele>
        <time>2017-11-22T07:44:11Z</time>
      </trkpt>
      <trkpt lat="45.26199" lon="6.02174">
        <ele>1681.4549560547</ele>
        <time>2017-11-22T07:44:15Z</time>
      </trkpt>
      <trkpt lat="45.26199" lon="6.02183">
        <ele>1684.4549560547</ele>
        <time>2017-11-22T07:44:20Z</time>
      </trkpt>
      <trkpt lat="45.262" lon="6.0219">
        <ele>1682.4549560547</ele>
        <time>2017-11-22T07:44:25Z</time>
      </trkpt>
      <trkpt lat="45.26201" lon="6.02198">
        <ele>1681.4549560547</ele>
        <time>2017-11-22T07:44:29Z</time>
      </trkpt>
      <trkpt lat="45.26202" lon="6.02205">
        <ele>1682.4549560547</ele>
        <time>2017-11-22T07:44:35Z</time>
      </trkpt>
      <trkpt lat="45.26203" lon="6.02212">
        <ele>1683.4549560547</ele>
        <time>2017-11-22T07:44:40Z</time>
      </trkpt>
      <trkpt lat="45.26204" lon="6.0222">
        <ele>1687.4549560547</ele>
        <time>2017-11-22T07:44:45Z</time>
      </trkpt>
      <trkpt lat="45.26205" lon="6.02228">
        <ele>1690.4549560547</ele>
        <time>2017-11-22T07:44:51Z</time>
      </trkpt>
      <trkpt lat="45.26206" lon="6.02235">
        <ele>1692.4549560547</ele>
        <time>2017-11-22T07:45:00Z</time>
      </trkpt>
      <trkpt lat="45.26207" lon="6.02242">
        <ele>1696.4549560547</ele>
        <time>2017-11-22T07:45:05Z</time>
      </trkpt>
      <trkpt lat="45.26208" lon="6.02249">
        <ele>1698.4549560547</ele>
        <time>2017-11-22T07:45:10Z</time>
      </trkpt>
      <trkpt lat="45.26208" lon="6.02257">
        <ele>1699.4560546875</ele>
        <time>2017-11-22T07:45:16Z</time>
      </trkpt>
      <trkpt lat="45.26208" lon="6.02264">
        <ele>1700.4560546875</ele>
        <time>2017-11-22T07:45:22Z</time>
      </trkpt>
      <trkpt lat="45.2621" lon="6.02271">
        <ele>1701.4560546875</ele>
        <time>2017-11-22T07:45:26Z</time>
      </trkpt>
      <trkpt lat="45.26212" lon="6.02279">
        <ele>1705.4560546875</ele>
        <time>2017-11-22T07:45:32Z</time>
      </trkpt>
      <trkpt lat="45.26213" lon="6.02286">
        <ele>1705.4560546875</ele>
        <time>2017-11-22T07:45:36Z</time>
      </trkpt>
      <trkpt lat="45.26214" lon="6.02294">
        <ele>1708.4560546875</ele>
        <time>2017-11-22T07:45:41Z</time>
      </trkpt>
      <trkpt lat="45.26215" lon="6.02301">
        <ele>1711.4560546875</ele>
        <time>2017-11-22T07:45:45Z</time>
      </trkpt>
      <trkpt lat="45.26216" lon="6.02308">
        <ele>1712.4560546875</ele>
        <time>2017-11-22T07:45:49Z</time>
      </trkpt>
      <trkpt lat="45.26216" lon="6.02314">
        <ele>1710.4560546875</ele>
        <time>2017-11-22T07:45:53Z</time>
      </trkpt>
      <trkpt lat="45.26215" lon="6.02322">
        <ele>1712.4560546875</ele>
        <time>2017-11-22T07:45:57Z</time>
      </trkpt>
      <trkpt lat="45.26216" lon="6.0233">
        <ele>1712.4560546875</ele>
        <time>2017-11-22T07:46:01Z</time>
      </trkpt>
      <trkpt lat="45.26216" lon="6.02336">
        <ele>1713.4560546875</ele>
        <time>2017-11-22T07:46:05Z</time>
      </trkpt>
      <trkpt lat="45.26217" lon="6.02343">
        <ele>1715.4560546875</ele>
        <time>2017-11-22T07:46:09Z</time>
      </trkpt>
      <trkpt lat="45.26218" lon="6.0235">
        <ele>1717.4560546875</ele>
        <time>2017-11-22T07:46:13Z</time>
      </trkpt>
      <trkpt lat="45.26219" lon="6.02357">
        <ele>1716.4560546875</ele>
        <time>2017-11-22T07:46:17Z</time>
      </trkpt>
      <trkpt lat="45.2622" lon="6.02366">
        <ele>1718.4560546875</ele>
        <time>2017-11-22T07:46:22Z</time>
      </trkpt>
      <trkpt lat="45.2622" lon="6.02374">
        <ele>1719.4560546875</ele>
        <time>2017-11-22T07:46:27Z</time>
      </trkpt>
      <trkpt lat="45.26221" lon="6.02382">
        <ele>1721.4560546875</ele>
        <time>2017-11-22T07:46:32Z</time>
      </trkpt>
      <trkpt lat="45.26223" lon="6.02388">
        <ele>1719.4560546875</ele>
        <time>2017-11-22T07:46:36Z</time>
      </trkpt>
      <trkpt lat="45.26226" lon="6.02394">
        <ele>1718.4560546875</ele>
        <time>2017-11-22T07:46:40Z</time>
      </trkpt>
      <trkpt lat="45.26229" lon="6.02402">
        <ele>1719.4560546875</ele>
        <time>2017-11-22T07:46:44Z</time>
      </trkpt>
      <trkpt lat="45.26232" lon="6.02409">
        <ele>1721.4560546875</ele>
        <time>2017-11-22T07:46:49Z</time>
      </trkpt>
      <trkpt lat="45.26233" lon="6.02415">
        <ele>1721.4560546875</ele>
        <time>2017-11-22T07:46:53Z</time>
      </trkpt>
      <trkpt lat="45.26234" lon="6.02422">
        <ele>1722.4560546875</ele>
        <time>2017-11-22T07:46:57Z</time>
      </trkpt>
      <trkpt lat="45.26236" lon="6.02428">
        <ele>1722.4560546875</ele>
        <time>2017-11-22T07:47:01Z</time>
      </trkpt>
      <trkpt lat="45.26236" lon="6.02436">
        <ele>1722.4560546875</ele>
        <time>2017-11-22T07:47:05Z</time>
      </trkpt>
      <trkpt lat="45.26237" lon="6.02443">
        <ele>1724.4560546875</ele>
        <time>2017-11-22T07:47:09Z</time>
      </trkpt>
      <trkpt lat="45.26239" lon="6.0245">
        <ele>1723.4560546875</ele>
        <time>2017-11-22T07:47:14Z</time>
      </trkpt>
      <trkpt lat="45.26241" lon="6.02455">
        <ele>1725.4560546875</ele>
        <time>2017-11-22T07:47:18Z</time>
      </trkpt>
      <trkpt lat="45.26244" lon="6.02462">
        <ele>1724.4560546875</ele>
        <time>2017-11-22T07:47:22Z</time>
      </trkpt>
      <trkpt lat="45.26247" lon="6.02468">
        <ele>1726.4560546875</ele>
        <time>2017-11-22T07:47:25Z</time>
      </trkpt>
      <trkpt lat="45.26249" lon="6.02474">
        <ele>1727.4560546875</ele>
        <time>2017-11-22T07:47:29Z</time>
      </trkpt>
      <trkpt lat="45.26252" lon="6.02481">
        <ele>1728.4560546875</ele>
        <time>2017-11-22T07:47:33Z</time>
      </trkpt>
      <trkpt lat="45.26256" lon="6.02487">
        <ele>1730.4560546875</ele>
        <time>2017-11-22T07:47:39Z</time>
      </trkpt>
      <trkpt lat="45.2626" lon="6.02493">
        <ele>1733.4560546875</ele>
        <time>2017-11-22T07:47:43Z</time>
      </trkpt>
      <trkpt lat="45.26262" lon="6.02499">
        <ele>1735.4560546875</ele>
        <time>2017-11-22T07:47:46Z</time>
      </trkpt>
      <trkpt lat="45.26266" lon="6.02503">
        <ele>1732.4560546875</ele>
        <time>2017-11-22T07:47:50Z</time>
      </trkpt>
      <trkpt lat="45.26269" lon="6.02509">
        <ele>1731.4560546875</ele>
        <time>2017-11-22T07:47:54Z</time>
      </trkpt>
      <trkpt lat="45.26272" lon="6.02515">
        <ele>1734.4560546875</ele>
        <time>2017-11-22T07:47:58Z</time>
      </trkpt>
      <trkpt lat="45.26275" lon="6.0252">
        <ele>1735.4560546875</ele>
        <time>2017-11-22T07:48:02Z</time>
      </trkpt>
      <trkpt lat="45.26278" lon="6.02526">
        <ele>1736.4560546875</ele>
        <time>2017-11-22T07:48:06Z</time>
      </trkpt>
      <trkpt lat="45.26282" lon="6.02531">
        <ele>1736.4560546875</ele>
        <time>2017-11-22T07:48:11Z</time>
      </trkpt>
      <trkpt lat="45.26286" lon="6.02537">
        <ele>1735.4560546875</ele>
        <time>2017-11-22T07:48:15Z</time>
      </trkpt>
      <trkpt lat="45.26289" lon="6.02541">
        <ele>1733.4560546875</ele>
        <time>2017-11-22T07:48:18Z</time>
      </trkpt>
      <trkpt lat="45.26293" lon="6.02547">
        <ele>1733.4560546875</ele>
        <time>2017-11-22T07:48:22Z</time>
      </trkpt>
      <trkpt lat="45.26297" lon="6.02552">
        <ele>1734.4560546875</ele>
        <time>2017-11-22T07:48:26Z</time>
      </trkpt>
      <trkpt lat="45.26302" lon="6.02556">
        <ele>1736.4560546875</ele>
        <time>2017-11-22T07:48:29Z</time>
      </trkpt>
      <trkpt lat="45.26307" lon="6.0256">
        <ele>1737.4560546875</ele>
        <time>2017-11-22T07:48:33Z</time>
      </trkpt>
      <trkpt lat="45.26311" lon="6.02563">
        <ele>1738.4560546875</ele>
        <time>2017-11-22T07:48:36Z</time>
      </trkpt>
      <trkpt lat="45.26317" lon="6.02567">
        <ele>1740.4560546875</ele>
        <time>2017-11-22T07:48:40Z</time>
      </trkpt>
      <trkpt lat="45.26321" lon="6.02572">
        <ele>1742.4560546875</ele>
        <time>2017-11-22T07:48:44Z</time>
      </trkpt>
      <trkpt lat="45.26326" lon="6.02575">
        <ele>1743.4560546875</ele>
        <time>2017-11-22T07:48:48Z</time>
      </trkpt>
      <trkpt lat="45.26331" lon="6.02579">
        <ele>1738.4560546875</ele>
        <time>2017-11-22T07:48:52Z</time>
      </trkpt>
      <trkpt lat="45.26335" lon="6.02582">
        <ele>1737.4560546875</ele>
        <time>2017-11-22T07:48:55Z</time>
      </trkpt>
      <trkpt lat="45.26339" lon="6.02587">
        <ele>1737.4560546875</ele>
        <time>2017-11-22T07:49:00Z</time>
      </trkpt>
      <trkpt lat="45.26343" lon="6.02591">
        <ele>1739.4560546875</ele>
        <time>2017-11-22T07:49:04Z</time>
      </trkpt>
      <trkpt lat="45.26344" lon="6.02598">
        <ele>1742.4560546875</ele>
        <time>2017-11-22T07:49:08Z</time>
      </trkpt>
      <trkpt lat="45.26342" lon="6.02606">
        <ele>1742.4560546875</ele>
        <time>2017-11-22T07:49:13Z</time>
      </trkpt>
      <trkpt lat="45.26338" lon="6.02609">
        <ele>1743.4560546875</ele>
        <time>2017-11-22T07:49:17Z</time>
      </trkpt>
      <trkpt lat="45.26333" lon="6.02613">
        <ele>1742.4560546875</ele>
        <time>2017-11-22T07:49:21Z</time>
      </trkpt>
      <trkpt lat="45.26329" lon="6.02615">
        <ele>1745.4560546875</ele>
        <time>2017-11-22T07:49:24Z</time>
      </trkpt>
      <trkpt lat="45.26324" lon="6.02616">
        <ele>1746.4560546875</ele>
        <time>2017-11-22T07:49:28Z</time>
      </trkpt>
      <trkpt lat="45.26319" lon="6.02618">
        <ele>1747.4560546875</ele>
        <time>2017-11-22T07:49:32Z</time>
      </trkpt>
      <trkpt lat="45.26315" lon="6.02623">
        <ele>1747.4560546875</ele>
        <time>2017-11-22T07:49:37Z</time>
      </trkpt>
      <trkpt lat="45.26311" lon="6.02629">
        <ele>1747.4560546875</ele>
        <time>2017-11-22T07:49:41Z</time>
      </trkpt>
      <trkpt lat="45.26308" lon="6.02634">
        <ele>1746.4560546875</ele>
        <time>2017-11-22T07:49:45Z</time>
      </trkpt>
      <trkpt lat="45.26303" lon="6.02638">
        <ele>1747.4560546875</ele>
        <time>2017-11-22T07:49:49Z</time>
      </trkpt>
      <trkpt lat="45.26298" lon="6.02639">
        <ele>1747.4560546875</ele>
        <time>2017-11-22T07:49:53Z</time>
      </trkpt>
      <trkpt lat="45.26294" lon="6.0264">
        <ele>1747.4560546875</ele>
        <time>2017-11-22T07:49:57Z</time>
      </trkpt>
      <trkpt lat="45.26288" lon="6.0264">
        <ele>1748.4560546875</ele>
        <time>2017-11-22T07:50:02Z</time>
      </trkpt>
      <trkpt lat="45.26283" lon="6.02641">
        <ele>1750.4560546875</ele>
        <time>2017-11-22T07:50:07Z</time>
      </trkpt>
      <trkpt lat="45.2628" lon="6.02646">
        <ele>1753.4560546875</ele>
        <time>2017-11-22T07:50:12Z</time>
      </trkpt>
      <trkpt lat="45.26275" lon="6.0265">
        <ele>1756.4560546875</ele>
        <time>2017-11-22T07:50:17Z</time>
      </trkpt>
      <trkpt lat="45.26271" lon="6.02654">
        <ele>1756.4560546875</ele>
        <time>2017-11-22T07:50:23Z</time>
      </trkpt>
      <trkpt lat="45.26266" lon="6.02657">
        <ele>1758.4560546875</ele>
        <time>2017-11-22T07:50:29Z</time>
      </trkpt>
      <trkpt lat="45.26261" lon="6.02659">
        <ele>1761.4560546875</ele>
        <time>2017-11-22T07:50:36Z</time>
      </trkpt>
      <trkpt lat="45.26257" lon="6.02661">
        <ele>1763.4560546875</ele>
        <time>2017-11-22T07:50:44Z</time>
      </trkpt>
      <trkpt lat="45.26253" lon="6.02664">
        <ele>1766.4560546875</ele>
        <time>2017-11-22T07:50:51Z</time>
      </trkpt>
      <trkpt lat="45.26248" lon="6.02666">
        <ele>1766.4560546875</ele>
        <time>2017-11-22T07:50:57Z</time>
      </trkpt>
      <trkpt lat="45.26245" lon="6.0267">
        <ele>1769.4560546875</ele>
        <time>2017-11-22T07:51:02Z</time>
      </trkpt>
      <trkpt lat="45.26242" lon="6.02676">
        <ele>1770.4560546875</ele>
        <time>2017-11-22T07:51:07Z</time>
      </trkpt>
      <trkpt lat="45.26239" lon="6.02681">
        <ele>1771.4560546875</ele>
        <time>2017-11-22T07:51:12Z</time>
      </trkpt>
      <trkpt lat="45.26237" lon="6.02689">
        <ele>1773.4560546875</ele>
        <time>2017-11-22T07:51:18Z</time>
      </trkpt>
      <trkpt lat="45.26234" lon="6.02695">
        <ele>1775.4560546875</ele>
        <time>2017-11-22T07:51:25Z</time>
      </trkpt>
      <trkpt lat="45.26232" lon="6.02701">
        <ele>1778.4560546875</ele>
        <time>2017-11-22T07:51:31Z</time>
      </trkpt>
      <trkpt lat="45.26228" lon="6.02699">
        <ele>1781.4560546875</ele>
        <time>2017-11-22T07:51:39Z</time>
      </trkpt>
      <trkpt lat="45.26224" lon="6.02696">
        <ele>1785.4560546875</ele>
        <time>2017-11-22T07:51:44Z</time>
      </trkpt>
      <trkpt lat="45.26219" lon="6.02692">
        <ele>1787.4560546875</ele>
        <time>2017-11-22T07:51:51Z</time>
      </trkpt>
      <trkpt lat="45.26215" lon="6.02691">
        <ele>1788.4560546875</ele>
        <time>2017-11-22T07:52:00Z</time>
      </trkpt>
      <trkpt lat="45.2621" lon="6.02689">
        <ele>1791.4560546875</ele>
        <time>2017-11-22T07:52:07Z</time>
      </trkpt>
      <trkpt lat="45.26207" lon="6.02694">
        <ele>1789.4560546875</ele>
        <time>2017-11-22T07:52:20Z</time>
      </trkpt>
      <trkpt lat="45.2621" lon="6.027">
        <ele>1788.4560546875</ele>
        <time>2017-11-22T07:52:27Z</time>
      </trkpt>
      <trkpt lat="45.26213" lon="6.02706">
        <ele>1788.4560546875</ele>
        <time>2017-11-22T07:52:33Z</time>
      </trkpt>
      <trkpt lat="45.26213" lon="6.02714">
        <ele>1788.4560546875</ele>
        <time>2017-11-22T07:52:40Z</time>
      </trkpt>
      <trkpt lat="45.26213" lon="6.0272">
        <ele>1791.4560546875</ele>
        <time>2017-11-22T07:52:44Z</time>
      </trkpt>
      <trkpt lat="45.26208" lon="6.0272">
        <ele>1797.4560546875</ele>
        <time>2017-11-22T07:52:57Z</time>
      </trkpt>
      <trkpt lat="45.26205" lon="6.02717">
        <ele>1800.4560546875</ele>
        <time>2017-11-22T07:53:04Z</time>
      </trkpt>
      <trkpt lat="45.26201" lon="6.02714">
        <ele>1802.4560546875</ele>
        <time>2017-11-22T07:53:09Z</time>
      </trkpt>
      <trkpt lat="45.26196" lon="6.02711">
        <ele>1804.4560546875</ele>
        <time>2017-11-22T07:53:15Z</time>
      </trkpt>
      <trkpt lat="45.26192" lon="6.02707">
        <ele>1803.4560546875</ele>
        <time>2017-11-22T07:53:21Z</time>
      </trkpt>
      <trkpt lat="45.26187" lon="6.02706">
        <ele>1804.4560546875</ele>
        <time>2017-11-22T07:53:29Z</time>
      </trkpt>
      <trkpt lat="45.26183" lon="6.02702">
        <ele>1807.4560546875</ele>
        <time>2017-11-22T07:53:34Z</time>
      </trkpt>
      <trkpt lat="45.26178" lon="6.02699">
        <ele>1809.4560546875</ele>
        <time>2017-11-22T07:53:39Z</time>
      </trkpt>
      <trkpt lat="45.26175" lon="6.02694">
        <ele>1811.4560546875</ele>
        <time>2017-11-22T07:53:45Z</time>
      </trkpt>
      <trkpt lat="45.26174" lon="6.02701">
        <ele>1811.4560546875</ele>
        <time>2017-11-22T07:53:57Z</time>
      </trkpt>
      <trkpt lat="45.26171" lon="6.02705">
        <ele>1810.4560546875</ele>
        <time>2017-11-22T07:54:16Z</time>
      </trkpt>
      <trkpt lat="45.26172" lon="6.02712">
        <ele>1812.4560546875</ele>
        <time>2017-11-22T07:54:24Z</time>
      </trkpt>
      <trkpt lat="45.26174" lon="6.02718">
        <ele>1812.4560546875</ele>
        <time>2017-11-22T07:54:30Z</time>
      </trkpt>
      <trkpt lat="45.2617" lon="6.02721">
        <ele>1814.4560546875</ele>
        <time>2017-11-22T07:54:50Z</time>
      </trkpt>
      <trkpt lat="45.26166" lon="6.02716">
        <ele>1815.4560546875</ele>
        <time>2017-11-22T07:54:57Z</time>
      </trkpt>
      <trkpt lat="45.26168" lon="6.02723">
        <ele>1818.4560546875</ele>
        <time>2017-11-22T07:55:12Z</time>
      </trkpt>
      <trkpt lat="45.26167" lon="6.02729">
        <ele>1820.4560546875</ele>
        <time>2017-11-22T07:55:36Z</time>
      </trkpt>
      <trkpt lat="45.2617" lon="6.02734">
        <ele>1824.4560546875</ele>
        <time>2017-11-22T07:55:42Z</time>
      </trkpt>
      <trkpt lat="45.26168" lon="6.0274">
        <ele>1823.4560546875</ele>
        <time>2017-11-22T07:55:50Z</time>
      </trkpt>
      <trkpt lat="45.26164" lon="6.02739">
        <ele>1821.4560546875</ele>
        <time>2017-11-22T07:56:21Z</time>
      </trkpt>
      <trkpt lat="45.26159" lon="6.02735">
        <ele>1823.4560546875</ele>
        <time>2017-11-22T07:56:27Z</time>
      </trkpt>
      <trkpt lat="45.26155" lon="6.02732">
        <ele>1823.4560546875</ele>
        <time>2017-11-22T07:56:32Z</time>
      </trkpt>
      <trkpt lat="45.26151" lon="6.02728">
        <ele>1825.4560546875</ele>
        <time>2017-11-22T07:56:38Z</time>
      </trkpt>
      <trkpt lat="45.26147" lon="6.02724">
        <ele>1828.4560546875</ele>
        <time>2017-11-22T07:56:44Z</time>
      </trkpt>
      <trkpt lat="45.26144" lon="6.02719">
        <ele>1828.4560546875</ele>
        <time>2017-11-22T07:56:50Z</time>
      </trkpt>
      <trkpt lat="45.26141" lon="6.02714">
        <ele>1830.4560546875</ele>
        <time>2017-11-22T07:56:56Z</time>
      </trkpt>
      <trkpt lat="45.26138" lon="6.02708">
        <ele>1832.4560546875</ele>
        <time>2017-11-22T07:57:04Z</time>
      </trkpt>
      <trkpt lat="45.26133" lon="6.02706">
        <ele>1833.4560546875</ele>
        <time>2017-11-22T07:57:11Z</time>
      </trkpt>
      <trkpt lat="45.26129" lon="6.02701">
        <ele>1835.4560546875</ele>
        <time>2017-11-22T07:57:17Z</time>
      </trkpt>
      <trkpt lat="45.26126" lon="6.02696">
        <ele>1839.4560546875</ele>
        <time>2017-11-22T07:57:29Z</time>
      </trkpt>
      <trkpt lat="45.26124" lon="6.02689">
        <ele>1842.4560546875</ele>
        <time>2017-11-22T07:57:37Z</time>
      </trkpt>
      <trkpt lat="45.26119" lon="6.02687">
        <ele>1844.4560546875</ele>
        <time>2017-11-22T07:57:42Z</time>
      </trkpt>
      <trkpt lat="45.26115" lon="6.02682">
        <ele>1843.4560546875</ele>
        <time>2017-11-22T07:57:45Z</time>
      </trkpt>
      <trkpt lat="45.26111" lon="6.02679">
        <ele>1843.4560546875</ele>
        <time>2017-11-22T07:57:49Z</time>
      </trkpt>
      <trkpt lat="45.26107" lon="6.0268">
        <ele>1842.4560546875</ele>
        <time>2017-11-22T07:57:56Z</time>
      </trkpt>
      <trkpt lat="45.26102" lon="6.02681">
        <ele>1844.4560546875</ele>
        <time>2017-11-22T07:58:01Z</time>
      </trkpt>
      <trkpt lat="45.26098" lon="6.02685">
        <ele>1847.4560546875</ele>
        <time>2017-11-22T07:58:07Z</time>
      </trkpt>
      <trkpt lat="45.26095" lon="6.02691">
        <ele>1847.4560546875</ele>
        <time>2017-11-22T07:58:12Z</time>
      </trkpt>
      <trkpt lat="45.26093" lon="6.02698">
        <ele>1848.4560546875</ele>
        <time>2017-11-22T07:58:18Z</time>
      </trkpt>
      <trkpt lat="45.26091" lon="6.02706">
        <ele>1850.4560546875</ele>
        <time>2017-11-22T07:58:24Z</time>
      </trkpt>
      <trkpt lat="45.26088" lon="6.02711">
        <ele>1849.4560546875</ele>
        <time>2017-11-22T07:58:29Z</time>
      </trkpt>
      <trkpt lat="45.26089" lon="6.02718">
        <ele>1851.4560546875</ele>
        <time>2017-11-22T07:58:33Z</time>
      </trkpt>
      <trkpt lat="45.26088" lon="6.02725">
        <ele>1853.4560546875</ele>
        <time>2017-11-22T07:58:38Z</time>
      </trkpt>
      <trkpt lat="45.26086" lon="6.02731">
        <ele>1855.4560546875</ele>
        <time>2017-11-22T07:58:43Z</time>
      </trkpt>
      <trkpt lat="45.26086" lon="6.02737">
        <ele>1856.4560546875</ele>
        <time>2017-11-22T07:58:49Z</time>
      </trkpt>
      <trkpt lat="45.26086" lon="6.02745">
        <ele>1857.4560546875</ele>
        <time>2017-11-22T07:58:56Z</time>
      </trkpt>
      <trkpt lat="45.26085" lon="6.02752">
        <ele>1859.4560546875</ele>
        <time>2017-11-22T07:59:01Z</time>
      </trkpt>
      <trkpt lat="45.26085" lon="6.02759">
        <ele>1858.4560546875</ele>
        <time>2017-11-22T07:59:06Z</time>
      </trkpt>
      <trkpt lat="45.26086" lon="6.02766">
        <ele>1859.4560546875</ele>
        <time>2017-11-22T07:59:12Z</time>
      </trkpt>
      <trkpt lat="45.26086" lon="6.02773">
        <ele>1862.4560546875</ele>
        <time>2017-11-22T07:59:19Z</time>
      </trkpt>
      <trkpt lat="45.26086" lon="6.02781">
        <ele>1864.4560546875</ele>
        <time>2017-11-22T07:59:25Z</time>
      </trkpt>
      <trkpt lat="45.26084" lon="6.02787">
        <ele>1867.4560546875</ele>
        <time>2017-11-22T07:59:32Z</time>
      </trkpt>
      <trkpt lat="45.26083" lon="6.02795">
        <ele>1868.4560546875</ele>
        <time>2017-11-22T07:59:36Z</time>
      </trkpt>
      <trkpt lat="45.26086" lon="6.02801">
        <ele>1869.4560546875</ele>
        <time>2017-11-22T07:59:42Z</time>
      </trkpt>
      <trkpt lat="45.2609" lon="6.02806">
        <ele>1871.4560546875</ele>
        <time>2017-11-22T07:59:47Z</time>
      </trkpt>
      <trkpt lat="45.26093" lon="6.02812">
        <ele>1874.4560546875</ele>
        <time>2017-11-22T07:59:52Z</time>
      </trkpt>
      <trkpt lat="45.26094" lon="6.02819">
        <ele>1877.4560546875</ele>
        <time>2017-11-22T07:59:58Z</time>
      </trkpt>
      <trkpt lat="45.26095" lon="6.02825">
        <ele>1879.4560546875</ele>
        <time>2017-11-22T08:00:04Z</time>
      </trkpt>
      <trkpt lat="45.26097" lon="6.02832">
        <ele>1882.4560546875</ele>
        <time>2017-11-22T08:00:11Z</time>
      </trkpt>
      <trkpt lat="45.26096" lon="6.02839">
        <ele>1883.4560546875</ele>
        <time>2017-11-22T08:00:17Z</time>
      </trkpt>
      <trkpt lat="45.26095" lon="6.02846">
        <ele>1885.4560546875</ele>
        <time>2017-11-22T08:00:25Z</time>
      </trkpt>
      <trkpt lat="45.26094" lon="6.02853">
        <ele>1887.4560546875</ele>
        <time>2017-11-22T08:00:32Z</time>
      </trkpt>
      <trkpt lat="45.26093" lon="6.0286">
        <ele>1892.4560546875</ele>
        <time>2017-11-22T08:00:39Z</time>
      </trkpt>
      <trkpt lat="45.26092" lon="6.02867">
        <ele>1894.4560546875</ele>
        <time>2017-11-22T08:00:47Z</time>
      </trkpt>
      <trkpt lat="45.2609" lon="6.02874">
        <ele>1896.4560546875</ele>
        <time>2017-11-22T08:00:54Z</time>
      </trkpt>
      <trkpt lat="45.26088" lon="6.02881">
        <ele>1897.4560546875</ele>
        <time>2017-11-22T08:01:01Z</time>
      </trkpt>
      <trkpt lat="45.26086" lon="6.02887">
        <ele>1898.4560546875</ele>
        <time>2017-11-22T08:01:08Z</time>
      </trkpt>
      <trkpt lat="45.26084" lon="6.02894">
        <ele>1900.4560546875</ele>
        <time>2017-11-22T08:01:16Z</time>
      </trkpt>
      <trkpt lat="45.26082" lon="6.02901">
        <ele>1901.4560546875</ele>
        <time>2017-11-22T08:01:24Z</time>
      </trkpt>
      <trkpt lat="45.26081" lon="6.02907">
        <ele>1901.4560546875</ele>
        <time>2017-11-22T08:01:30Z</time>
      </trkpt>
      <trkpt lat="45.2608" lon="6.02914">
        <ele>1904.4560546875</ele>
        <time>2017-11-22T08:01:36Z</time>
      </trkpt>
      <trkpt lat="45.26078" lon="6.02921">
        <ele>1908.4560546875</ele>
        <time>2017-11-22T08:01:43Z</time>
      </trkpt>
      <trkpt lat="45.26077" lon="6.02929">
        <ele>1908.4560546875</ele>
        <time>2017-11-22T08:01:49Z</time>
      </trkpt>
      <trkpt lat="45.26075" lon="6.02935">
        <ele>1909.4560546875</ele>
        <time>2017-11-22T08:01:55Z</time>
      </trkpt>
      <trkpt lat="45.26073" lon="6.02941">
        <ele>1910.4560546875</ele>
        <time>2017-11-22T08:02:00Z</time>
      </trkpt>
      <trkpt lat="45.26071" lon="6.02948">
        <ele>1911.4560546875</ele>
        <time>2017-11-22T08:02:05Z</time>
      </trkpt>
      <trkpt lat="45.26068" lon="6.02953">
        <ele>1912.4560546875</ele>
        <time>2017-11-22T08:02:09Z</time>
      </trkpt>
      <trkpt lat="45.26067" lon="6.0296">
        <ele>1913.4560546875</ele>
        <time>2017-11-22T08:02:13Z</time>
      </trkpt>
      <trkpt lat="45.26065" lon="6.02967">
        <ele>1915.4560546875</ele>
        <time>2017-11-22T08:02:18Z</time>
      </trkpt>
      <trkpt lat="45.26062" lon="6.02974">
        <ele>1914.4560546875</ele>
        <time>2017-11-22T08:02:23Z</time>
      </trkpt>
      <trkpt lat="45.26061" lon="6.02981">
        <ele>1917.4560546875</ele>
        <time>2017-11-22T08:02:27Z</time>
      </trkpt>
      <trkpt lat="45.2606" lon="6.02987">
        <ele>1917.4560546875</ele>
        <time>2017-11-22T08:02:31Z</time>
      </trkpt>
      <trkpt lat="45.26058" lon="6.02994">
        <ele>1919.4560546875</ele>
        <time>2017-11-22T08:02:35Z</time>
      </trkpt>
      <trkpt lat="45.26057" lon="6.03001">
        <ele>1921.4560546875</ele>
        <time>2017-11-22T08:02:39Z</time>
      </trkpt>
      <trkpt lat="45.26055" lon="6.03007">
        <ele>1921.4560546875</ele>
        <time>2017-11-22T08:02:43Z</time>
      </trkpt>
      <trkpt lat="45.26054" lon="6.03015">
        <ele>1919.4560546875</ele>
        <time>2017-11-22T08:02:47Z</time>
      </trkpt>
      <trkpt lat="45.26052" lon="6.03022">
        <ele>1919.4560546875</ele>
        <time>2017-11-22T08:02:51Z</time>
      </trkpt>
      <trkpt lat="45.2605" lon="6.03028">
        <ele>1917.4560546875</ele>
        <time>2017-11-22T08:02:55Z</time>
      </trkpt>
      <trkpt lat="45.2605" lon="6.03034">
        <ele>1920.4560546875</ele>
        <time>2017-11-22T08:02:59Z</time>
      </trkpt>
      <trkpt lat="45.26048" lon="6.03041">
        <ele>1921.4560546875</ele>
        <time>2017-11-22T08:03:04Z</time>
      </trkpt>
      <trkpt lat="45.26047" lon="6.03048">
        <ele>1922.4560546875</ele>
        <time>2017-11-22T08:03:08Z</time>
      </trkpt>
      <trkpt lat="45.26047" lon="6.03054">
        <ele>1922.4560546875</ele>
        <time>2017-11-22T08:03:15Z</time>
      </trkpt>
      <trkpt lat="45.26045" lon="6.03061">
        <ele>1922.4560546875</ele>
        <time>2017-11-22T08:03:20Z</time>
      </trkpt>
      <trkpt lat="45.26045" lon="6.03068">
        <ele>1923.4560546875</ele>
        <time>2017-11-22T08:03:25Z</time>
      </trkpt>
      <trkpt lat="45.26044" lon="6.03075">
        <ele>1924.4560546875</ele>
        <time>2017-11-22T08:03:29Z</time>
      </trkpt>
      <trkpt lat="45.26043" lon="6.03083">
        <ele>1924.4560546875</ele>
        <time>2017-11-22T08:03:37Z</time>
      </trkpt>
      <trkpt lat="45.26041" lon="6.03088">
        <ele>1925.4560546875</ele>
        <time>2017-11-22T08:03:42Z</time>
      </trkpt>
      <trkpt lat="45.2604" lon="6.03095">
        <ele>1929.4560546875</ele>
        <time>2017-11-22T08:03:49Z</time>
      </trkpt>
      <trkpt lat="45.26038" lon="6.03101">
        <ele>1930.4560546875</ele>
        <time>2017-11-22T08:03:54Z</time>
      </trkpt>
      <trkpt lat="45.26037" lon="6.03108">
        <ele>1933.4560546875</ele>
        <time>2017-11-22T08:04:00Z</time>
      </trkpt>
      <trkpt lat="45.26036" lon="6.03115">
        <ele>1936.4560546875</ele>
        <time>2017-11-22T08:04:09Z</time>
      </trkpt>
      <trkpt lat="45.26033" lon="6.03121">
        <ele>1939.4560546875</ele>
        <time>2017-11-22T08:04:19Z</time>
      </trkpt>
      <trkpt lat="45.26031" lon="6.03127">
        <ele>1939.4560546875</ele>
        <time>2017-11-22T08:04:28Z</time>
      </trkpt>
      <trkpt lat="45.26029" lon="6.03133">
        <ele>1941.4560546875</ele>
        <time>2017-11-22T08:04:36Z</time>
      </trkpt>
      <trkpt lat="45.26026" lon="6.03138">
        <ele>1944.4560546875</ele>
        <time>2017-11-22T08:04:43Z</time>
      </trkpt>
      <trkpt lat="45.26023" lon="6.03145">
        <ele>1948.4560546875</ele>
        <time>2017-11-22T08:04:49Z</time>
      </trkpt>
      <trkpt lat="45.2602" lon="6.03151">
        <ele>1950.4560546875</ele>
        <time>2017-11-22T08:04:56Z</time>
      </trkpt>
      <trkpt lat="45.26017" lon="6.03156">
        <ele>1953.4560546875</ele>
        <time>2017-11-22T08:05:03Z</time>
      </trkpt>
      <trkpt lat="45.26015" lon="6.03162">
        <ele>1953.4560546875</ele>
        <time>2017-11-22T08:05:09Z</time>
      </trkpt>
      <trkpt lat="45.26013" lon="6.03168">
        <ele>1957.4560546875</ele>
        <time>2017-11-22T08:05:14Z</time>
      </trkpt>
      <trkpt lat="45.26011" lon="6.03174">
        <ele>1958.4560546875</ele>
        <time>2017-11-22T08:05:21Z</time>
      </trkpt>
      <trkpt lat="45.26008" lon="6.0318">
        <ele>1960.4560546875</ele>
        <time>2017-11-22T08:05:28Z</time>
      </trkpt>
      <trkpt lat="45.26005" lon="6.03185">
        <ele>1962.4560546875</ele>
        <time>2017-11-22T08:05:34Z</time>
      </trkpt>
      <trkpt lat="45.26002" lon="6.0319">
        <ele>1963.4560546875</ele>
        <time>2017-11-22T08:05:38Z</time>
      </trkpt>
      <trkpt lat="45.25998" lon="6.03195">
        <ele>1964.4560546875</ele>
        <time>2017-11-22T08:05:43Z</time>
      </trkpt>
      <trkpt lat="45.25994" lon="6.03199">
        <ele>1965.4560546875</ele>
        <time>2017-11-22T08:05:48Z</time>
      </trkpt>
      <trkpt lat="45.2599" lon="6.03202">
        <ele>1967.4560546875</ele>
        <time>2017-11-22T08:05:52Z</time>
      </trkpt>
      <trkpt lat="45.25985" lon="6.03203">
        <ele>1966.4560546875</ele>
        <time>2017-11-22T08:05:59Z</time>
      </trkpt>
      <trkpt lat="45.2598" lon="6.03204">
        <ele>1968.4560546875</ele>
        <time>2017-11-22T08:06:05Z</time>
      </trkpt>
      <trkpt lat="45.25975" lon="6.03204">
        <ele>1967.4560546875</ele>
        <time>2017-11-22T08:06:10Z</time>
      </trkpt>
      <trkpt lat="45.25971" lon="6.03203">
        <ele>1970.4560546875</ele>
        <time>2017-11-22T08:06:15Z</time>
      </trkpt>
      <trkpt lat="45.25966" lon="6.03202">
        <ele>1972.4560546875</ele>
        <time>2017-11-22T08:06:20Z</time>
      </trkpt>
      <trkpt lat="45.25961" lon="6.032">
        <ele>1974.4560546875</ele>
        <time>2017-11-22T08:06:26Z</time>
      </trkpt>
      <trkpt lat="45.25956" lon="6.03199">
        <ele>1977.4560546875</ele>
        <time>2017-11-22T08:06:32Z</time>
      </trkpt>
      <trkpt lat="45.25951" lon="6.03197">
        <ele>1977.4560546875</ele>
        <time>2017-11-22T08:06:38Z</time>
      </trkpt>
      <trkpt lat="45.25946" lon="6.03195">
        <ele>1977.4560546875</ele>
        <time>2017-11-22T08:06:43Z</time>
      </trkpt>
      <trkpt lat="45.25942" lon="6.03192">
        <ele>1980.4560546875</ele>
        <time>2017-11-22T08:06:47Z</time>
      </trkpt>
      <trkpt lat="45.25938" lon="6.03188">
        <ele>1980.4560546875</ele>
        <time>2017-11-22T08:06:52Z</time>
      </trkpt>
      <trkpt lat="45.25933" lon="6.03185">
        <ele>1982.4560546875</ele>
        <time>2017-11-22T08:06:57Z</time>
      </trkpt>
      <trkpt lat="45.25929" lon="6.03182">
        <ele>1985.4560546875</ele>
        <time>2017-11-22T08:07:02Z</time>
      </trkpt>
      <trkpt lat="45.25925" lon="6.03178">
        <ele>1985.4560546875</ele>
        <time>2017-11-22T08:07:06Z</time>
      </trkpt>
      <trkpt lat="45.2592" lon="6.03175">
        <ele>1985.4560546875</ele>
        <time>2017-11-22T08:07:10Z</time>
      </trkpt>
      <trkpt lat="45.25916" lon="6.03171">
        <ele>1985.4560546875</ele>
        <time>2017-11-22T08:07:15Z</time>
      </trkpt>
      <trkpt lat="45.25912" lon="6.03167">
        <ele>1986.4560546875</ele>
        <time>2017-11-22T08:07:20Z</time>
      </trkpt>
      <trkpt lat="45.25909" lon="6.03162">
        <ele>1988.4560546875</ele>
        <time>2017-11-22T08:07:26Z</time>
      </trkpt>
      <trkpt lat="45.25904" lon="6.0316">
        <ele>1988.4560546875</ele>
        <time>2017-11-22T08:07:31Z</time>
      </trkpt>
      <trkpt lat="45.25901" lon="6.03154">
        <ele>1989.4560546875</ele>
        <time>2017-11-22T08:07:36Z</time>
      </trkpt>
      <trkpt lat="45.25896" lon="6.0315">
        <ele>1990.4560546875</ele>
        <time>2017-11-22T08:07:42Z</time>
      </trkpt>
      <trkpt lat="45.25893" lon="6.03145">
        <ele>1990.4560546875</ele>
        <time>2017-11-22T08:07:46Z</time>
      </trkpt>
      <trkpt lat="45.25889" lon="6.0314">
        <ele>1991.4560546875</ele>
        <time>2017-11-22T08:07:51Z</time>
      </trkpt>
      <trkpt lat="45.25884" lon="6.03136">
        <ele>1994.4560546875</ele>
        <time>2017-11-22T08:07:58Z</time>
      </trkpt>
      <trkpt lat="45.25881" lon="6.03131">
        <ele>1996.4560546875</ele>
        <time>2017-11-22T08:08:03Z</time>
      </trkpt>
      <trkpt lat="45.25878" lon="6.03126">
        <ele>1999.4560546875</ele>
        <time>2017-11-22T08:08:09Z</time>
      </trkpt>
      <trkpt lat="45.25875" lon="6.0312">
        <ele>1998.4560546875</ele>
        <time>2017-11-22T08:08:15Z</time>
      </trkpt>
      <trkpt lat="45.25874" lon="6.03114">
        <ele>2001.4560546875</ele>
        <time>2017-11-22T08:08:20Z</time>
      </trkpt>
      <trkpt lat="45.25873" lon="6.03107">
        <ele>2001.4560546875</ele>
        <time>2017-11-22T08:08:26Z</time>
      </trkpt>
      <trkpt lat="45.25872" lon="6.03101">
        <ele>2002.4560546875</ele>
        <time>2017-11-22T08:08:32Z</time>
      </trkpt>
      <trkpt lat="45.25869" lon="6.03095">
        <ele>2004.4560546875</ele>
        <time>2017-11-22T08:08:38Z</time>
      </trkpt>
      <trkpt lat="45.25865" lon="6.03092">
        <ele>2006.4560546875</ele>
        <time>2017-11-22T08:08:45Z</time>
      </trkpt>
      <trkpt lat="45.25861" lon="6.03088">
        <ele>2010.4560546875</ele>
        <time>2017-11-22T08:08:50Z</time>
      </trkpt>
      <trkpt lat="45.25857" lon="6.03084">
        <ele>2011.4560546875</ele>
        <time>2017-11-22T08:08:56Z</time>
      </trkpt>
      <trkpt lat="45.25853" lon="6.03081">
        <ele>2013.4560546875</ele>
        <time>2017-11-22T08:09:04Z</time>
      </trkpt>
      <trkpt lat="45.25848" lon="6.03081">
        <ele>2014.4560546875</ele>
        <time>2017-11-22T08:09:11Z</time>
      </trkpt>
      <trkpt lat="45.25843" lon="6.0308">
        <ele>2016.4560546875</ele>
        <time>2017-11-22T08:09:17Z</time>
      </trkpt>
      <trkpt lat="45.25838" lon="6.03082">
        <ele>2018.4560546875</ele>
        <time>2017-11-22T08:09:25Z</time>
      </trkpt>
      <trkpt lat="45.25834" lon="6.03084">
        <ele>2020.4560546875</ele>
        <time>2017-11-22T08:09:32Z</time>
      </trkpt>
      <trkpt lat="45.2583" lon="6.03089">
        <ele>2022.4560546875</ele>
        <time>2017-11-22T08:09:39Z</time>
      </trkpt>
      <trkpt lat="45.25828" lon="6.03096">
        <ele>2024.4560546875</ele>
        <time>2017-11-22T08:09:44Z</time>
      </trkpt>
      <trkpt lat="45.25825" lon="6.03102">
        <ele>2023.4560546875</ele>
        <time>2017-11-22T08:09:50Z</time>
      </trkpt>
      <trkpt lat="45.25821" lon="6.03107">
        <ele>2025.4560546875</ele>
        <time>2017-11-22T08:09:56Z</time>
      </trkpt>
      <trkpt lat="45.25819" lon="6.03113">
        <ele>2027.4560546875</ele>
        <time>2017-11-22T08:10:01Z</time>
      </trkpt>
      <trkpt lat="45.25818" lon="6.0312">
        <ele>2028.4560546875</ele>
        <time>2017-11-22T08:10:07Z</time>
      </trkpt>
      <trkpt lat="45.25818" lon="6.03127">
        <ele>2030.4560546875</ele>
        <time>2017-11-22T08:10:12Z</time>
      </trkpt>
      <trkpt lat="45.25818" lon="6.03134">
        <ele>2030.4560546875</ele>
        <time>2017-11-22T08:10:18Z</time>
      </trkpt>
      <trkpt lat="45.25818" lon="6.03142">
        <ele>2033.4560546875</ele>
        <time>2017-11-22T08:10:25Z</time>
      </trkpt>
      <trkpt lat="45.25816" lon="6.03148">
        <ele>2035.4560546875</ele>
        <time>2017-11-22T08:10:33Z</time>
      </trkpt>
      <trkpt lat="45.25817" lon="6.03156">
        <ele>2037.4560546875</ele>
        <time>2017-11-22T08:10:43Z</time>
      </trkpt>
      <trkpt lat="45.25819" lon="6.03163">
        <ele>2038.4560546875</ele>
        <time>2017-11-22T08:10:49Z</time>
      </trkpt>
      <trkpt lat="45.25819" lon="6.0317">
        <ele>2041.4560546875</ele>
        <time>2017-11-22T08:10:56Z</time>
      </trkpt>
      <trkpt lat="45.25818" lon="6.03177">
        <ele>2043.4560546875</ele>
        <time>2017-11-22T08:11:03Z</time>
      </trkpt>
      <trkpt lat="45.25815" lon="6.03182">
        <ele>2043.4560546875</ele>
        <time>2017-11-22T08:11:10Z</time>
      </trkpt>
      <trkpt lat="45.25812" lon="6.03189">
        <ele>2045.4560546875</ele>
        <time>2017-11-22T08:11:16Z</time>
      </trkpt>
      <trkpt lat="45.2581" lon="6.03194">
        <ele>2047.4560546875</ele>
        <time>2017-11-22T08:11:21Z</time>
      </trkpt>
      <trkpt lat="45.25807" lon="6.03199">
        <ele>2051.4560546875</ele>
        <time>2017-11-22T08:11:27Z</time>
      </trkpt>
      <trkpt lat="45.25801" lon="6.03202">
        <ele>2053.4560546875</ele>
        <time>2017-11-22T08:11:35Z</time>
      </trkpt>
      <trkpt lat="45.25797" lon="6.03202">
        <ele>2053.4560546875</ele>
        <time>2017-11-22T08:11:41Z</time>
      </trkpt>
      <trkpt lat="45.25792" lon="6.03202">
        <ele>2055.4560546875</ele>
        <time>2017-11-22T08:11:46Z</time>
      </trkpt>
      <trkpt lat="45.25787" lon="6.03202">
        <ele>2055.4560546875</ele>
        <time>2017-11-22T08:11:52Z</time>
      </trkpt>
      <trkpt lat="45.25783" lon="6.03203">
        <ele>2057.4560546875</ele>
        <time>2017-11-22T08:11:58Z</time>
      </trkpt>
      <trkpt lat="45.25778" lon="6.03203">
        <ele>2057.4560546875</ele>
        <time>2017-11-22T08:12:07Z</time>
      </trkpt>
      <trkpt lat="45.25773" lon="6.03202">
        <ele>2056.4560546875</ele>
        <time>2017-11-22T08:12:12Z</time>
      </trkpt>
      <trkpt lat="45.25769" lon="6.03201">
        <ele>2055.4560546875</ele>
        <time>2017-11-22T08:12:17Z</time>
      </trkpt>
      <trkpt lat="45.25763" lon="6.03199">
        <ele>2056.4560546875</ele>
        <time>2017-11-22T08:12:22Z</time>
      </trkpt>
      <trkpt lat="45.25757" lon="6.03198">
        <ele>2057.4560546875</ele>
        <time>2017-11-22T08:12:28Z</time>
      </trkpt>
      <trkpt lat="45.25752" lon="6.03196">
        <ele>2057.4560546875</ele>
        <time>2017-11-22T08:12:34Z</time>
      </trkpt>
      <trkpt lat="45.25747" lon="6.03195">
        <ele>2059.4560546875</ele>
        <time>2017-11-22T08:12:38Z</time>
      </trkpt>
      <trkpt lat="45.25743" lon="6.03194">
        <ele>2060.4560546875</ele>
        <time>2017-11-22T08:12:43Z</time>
      </trkpt>
      <trkpt lat="45.25737" lon="6.03193">
        <ele>2060.4560546875</ele>
        <time>2017-11-22T08:12:48Z</time>
      </trkpt>
      <trkpt lat="45.25732" lon="6.03195">
        <ele>2061.4560546875</ele>
        <time>2017-11-22T08:12:53Z</time>
      </trkpt>
      <trkpt lat="45.25728" lon="6.03197">
        <ele>2062.4560546875</ele>
        <time>2017-11-22T08:12:58Z</time>
      </trkpt>
      <trkpt lat="45.25722" lon="6.03197">
        <ele>2063.4560546875</ele>
        <time>2017-11-22T08:13:03Z</time>
      </trkpt>
      <trkpt lat="45.25717" lon="6.03198">
        <ele>2064.4560546875</ele>
        <time>2017-11-22T08:13:08Z</time>
      </trkpt>
      <trkpt lat="45.25713" lon="6.03197">
        <ele>2064.4560546875</ele>
        <time>2017-11-22T08:13:12Z</time>
      </trkpt>
      <trkpt lat="45.25707" lon="6.03196">
        <ele>2065.4560546875</ele>
        <time>2017-11-22T08:13:18Z</time>
      </trkpt>
      <trkpt lat="45.25702" lon="6.03197">
        <ele>2067.4560546875</ele>
        <time>2017-11-22T08:13:24Z</time>
      </trkpt>
      <trkpt lat="45.25697" lon="6.03195">
        <ele>2068.4560546875</ele>
        <time>2017-11-22T08:13:28Z</time>
      </trkpt>
      <trkpt lat="45.25692" lon="6.03194">
        <ele>2068.4560546875</ele>
        <time>2017-11-22T08:13:33Z</time>
      </trkpt>
      <trkpt lat="45.25688" lon="6.03194">
        <ele>2069.4560546875</ele>
        <time>2017-11-22T08:13:38Z</time>
      </trkpt>
      <trkpt lat="45.25683" lon="6.03193">
        <ele>2069.4560546875</ele>
        <time>2017-11-22T08:13:43Z</time>
      </trkpt>
      <trkpt lat="45.25677" lon="6.03192">
        <ele>2071.4560546875</ele>
        <time>2017-11-22T08:13:49Z</time>
      </trkpt>
      <trkpt lat="45.25672" lon="6.03192">
        <ele>2072.4560546875</ele>
        <time>2017-11-22T08:13:55Z</time>
      </trkpt>
      <trkpt lat="45.25668" lon="6.03192">
        <ele>2075.4560546875</ele>
        <time>2017-11-22T08:14:01Z</time>
      </trkpt>
      <trkpt lat="45.25663" lon="6.03191">
        <ele>2076.4560546875</ele>
        <time>2017-11-22T08:14:06Z</time>
      </trkpt>
      <trkpt lat="45.25658" lon="6.03189">
        <ele>2078.4560546875</ele>
        <time>2017-11-22T08:14:11Z</time>
      </trkpt>
      <trkpt lat="45.25653" lon="6.03188">
        <ele>2079.4560546875</ele>
        <time>2017-11-22T08:14:17Z</time>
      </trkpt>
      <trkpt lat="45.25648" lon="6.03186">
        <ele>2083.4560546875</ele>
        <time>2017-11-22T08:14:22Z</time>
      </trkpt>
      <trkpt lat="45.25643" lon="6.03185">
        <ele>2084.4560546875</ele>
        <time>2017-11-22T08:14:27Z</time>
      </trkpt>
      <trkpt lat="45.25639" lon="6.03181">
        <ele>2085.4560546875</ele>
        <time>2017-11-22T08:14:33Z</time>
      </trkpt>
      <trkpt lat="45.25635" lon="6.03178">
        <ele>2086.4560546875</ele>
        <time>2017-11-22T08:14:38Z</time>
      </trkpt>
      <trkpt lat="45.25631" lon="6.03174">
        <ele>2090.4560546875</ele>
        <time>2017-11-22T08:14:46Z</time>
      </trkpt>
      <trkpt lat="45.25627" lon="6.03171">
        <ele>2090.4560546875</ele>
        <time>2017-11-22T08:14:52Z</time>
      </trkpt>
      <trkpt lat="45.25622" lon="6.03167">
        <ele>2092.4560546875</ele>
        <time>2017-11-22T08:14:59Z</time>
      </trkpt>
      <trkpt lat="45.25619" lon="6.03161">
        <ele>2093.4560546875</ele>
        <time>2017-11-22T08:15:05Z</time>
      </trkpt>
      <trkpt lat="45.25615" lon="6.03156">
        <ele>2095.4560546875</ele>
        <time>2017-11-22T08:15:11Z</time>
      </trkpt>
      <trkpt lat="45.25611" lon="6.03153">
        <ele>2097.4560546875</ele>
        <time>2017-11-22T08:15:17Z</time>
      </trkpt>
      <trkpt lat="45.25607" lon="6.03157">
        <ele>2098.4560546875</ele>
        <time>2017-11-22T08:15:23Z</time>
      </trkpt>
      <trkpt lat="45.25603" lon="6.03162">
        <ele>2101.4560546875</ele>
        <time>2017-11-22T08:15:27Z</time>
      </trkpt>
      <trkpt lat="45.256" lon="6.03168">
        <ele>2102.4560546875</ele>
        <time>2017-11-22T08:15:32Z</time>
      </trkpt>
      <trkpt lat="45.25597" lon="6.03174">
        <ele>2103.4560546875</ele>
        <time>2017-11-22T08:15:36Z</time>
      </trkpt>
      <trkpt lat="45.25594" lon="6.03179">
        <ele>2103.4560546875</ele>
        <time>2017-11-22T08:15:40Z</time>
      </trkpt>
      <trkpt lat="45.2559" lon="6.03185">
        <ele>2104.4560546875</ele>
        <time>2017-11-22T08:15:44Z</time>
      </trkpt>
      <trkpt lat="45.25587" lon="6.03191">
        <ele>2107.4560546875</ele>
        <time>2017-11-22T08:15:49Z</time>
      </trkpt>
      <trkpt lat="45.25583" lon="6.03196">
        <ele>2108.4560546875</ele>
        <time>2017-11-22T08:15:53Z</time>
      </trkpt>
      <trkpt lat="45.2558" lon="6.032">
        <ele>2108.4560546875</ele>
        <time>2017-11-22T08:15:57Z</time>
      </trkpt>
      <trkpt lat="45.25576" lon="6.03205">
        <ele>2109.4560546875</ele>
        <time>2017-11-22T08:16:02Z</time>
      </trkpt>
      <trkpt lat="45.25573" lon="6.03211">
        <ele>2110.4560546875</ele>
        <time>2017-11-22T08:16:07Z</time>
      </trkpt>
      <trkpt lat="45.2557" lon="6.03217">
        <ele>2110.4560546875</ele>
        <time>2017-11-22T08:16:12Z</time>
      </trkpt>
      <trkpt lat="45.25567" lon="6.03223">
        <ele>2111.4560546875</ele>
        <time>2017-11-22T08:16:16Z</time>
      </trkpt>
      <trkpt lat="45.25565" lon="6.03228">
        <ele>2112.4560546875</ele>
        <time>2017-11-22T08:16:20Z</time>
      </trkpt>
      <trkpt lat="45.25561" lon="6.03233">
        <ele>2114.4560546875</ele>
        <time>2017-11-22T08:16:24Z</time>
      </trkpt>
      <trkpt lat="45.25559" lon="6.0324">
        <ele>2116.4560546875</ele>
        <time>2017-11-22T08:16:29Z</time>
      </trkpt>
      <trkpt lat="45.25557" lon="6.03246">
        <ele>2116.4560546875</ele>
        <time>2017-11-22T08:16:34Z</time>
      </trkpt>
      <trkpt lat="45.25554" lon="6.03253">
        <ele>2118.4560546875</ele>
        <time>2017-11-22T08:16:39Z</time>
      </trkpt>
      <trkpt lat="45.25551" lon="6.03259">
        <ele>2119.4560546875</ele>
        <time>2017-11-22T08:16:44Z</time>
      </trkpt>
      <trkpt lat="45.25549" lon="6.03264">
        <ele>2119.4560546875</ele>
        <time>2017-11-22T08:16:48Z</time>
      </trkpt>
      <trkpt lat="45.25547" lon="6.03271">
        <ele>2121.4560546875</ele>
        <time>2017-11-22T08:16:52Z</time>
      </trkpt>
      <trkpt lat="45.25544" lon="6.03277">
        <ele>2122.4560546875</ele>
        <time>2017-11-22T08:16:56Z</time>
      </trkpt>
      <trkpt lat="45.25541" lon="6.03282">
        <ele>2122.4560546875</ele>
        <time>2017-11-22T08:17:00Z</time>
      </trkpt>
      <trkpt lat="45.25539" lon="6.03288">
        <ele>2121.4560546875</ele>
        <time>2017-11-22T08:17:05Z</time>
      </trkpt>
      <trkpt lat="45.25537" lon="6.03295">
        <ele>2122.4560546875</ele>
        <time>2017-11-22T08:17:10Z</time>
      </trkpt>
      <trkpt lat="45.25534" lon="6.03302">
        <ele>2122.4560546875</ele>
        <time>2017-11-22T08:17:16Z</time>
      </trkpt>
      <trkpt lat="45.25533" lon="6.03307">
        <ele>2122.4560546875</ele>
        <time>2017-11-22T08:17:20Z</time>
      </trkpt>
      <trkpt lat="45.25531" lon="6.03315">
        <ele>2123.4560546875</ele>
        <time>2017-11-22T08:17:25Z</time>
      </trkpt>
      <trkpt lat="45.25529" lon="6.03322">
        <ele>2123.4560546875</ele>
        <time>2017-11-22T08:17:30Z</time>
      </trkpt>
      <trkpt lat="45.25527" lon="6.03328">
        <ele>2125.4560546875</ele>
        <time>2017-11-22T08:17:34Z</time>
      </trkpt>
      <trkpt lat="45.25524" lon="6.03335">
        <ele>2126.4560546875</ele>
        <time>2017-11-22T08:17:39Z</time>
      </trkpt>
      <trkpt lat="45.25522" lon="6.03341">
        <ele>2127.4560546875</ele>
        <time>2017-11-22T08:17:45Z</time>
      </trkpt>
      <trkpt lat="45.25519" lon="6.03347">
        <ele>2129.4560546875</ele>
        <time>2017-11-22T08:17:50Z</time>
      </trkpt>
      <trkpt lat="45.25515" lon="6.03352">
        <ele>2130.4560546875</ele>
        <time>2017-11-22T08:17:56Z</time>
      </trkpt>
      <trkpt lat="45.25511" lon="6.03356">
        <ele>2131.4560546875</ele>
        <time>2017-11-22T08:18:02Z</time>
      </trkpt>
      <trkpt lat="45.25507" lon="6.0336">
        <ele>2133.4560546875</ele>
        <time>2017-11-22T08:18:08Z</time>
      </trkpt>
      <trkpt lat="45.25502" lon="6.0336">
        <ele>2135.4560546875</ele>
        <time>2017-11-22T08:18:16Z</time>
      </trkpt>
      <trkpt lat="45.25497" lon="6.03361">
        <ele>2135.4560546875</ele>
        <time>2017-11-22T08:18:27Z</time>
      </trkpt>
      <trkpt lat="45.25492" lon="6.03362">
        <ele>2136.4560546875</ele>
        <time>2017-11-22T08:18:34Z</time>
      </trkpt>
      <trkpt lat="45.25488" lon="6.03364">
        <ele>2137.4560546875</ele>
        <time>2017-11-22T08:18:41Z</time>
      </trkpt>
      <trkpt lat="45.25483" lon="6.03367">
        <ele>2141.4560546875</ele>
        <time>2017-11-22T08:19:24Z</time>
      </trkpt>
      <trkpt lat="45.25484" lon="6.03376">
        <ele>2134.4560546875</ele>
        <time>2017-11-22T08:23:06Z</time>
      </trkpt>
      <trkpt lat="45.25481" lon="6.03385">
        <ele>2134.4560546875</ele>
        <time>2017-11-22T08:23:08Z</time>
      </trkpt>
      <trkpt lat="45.25476" lon="6.03393">
        <ele>2135.4560546875</ele>
        <time>2017-11-22T08:23:10Z</time>
      </trkpt>
      <trkpt lat="45.25472" lon="6.03401">
        <ele>2135.4560546875</ele>
        <time>2017-11-22T08:23:12Z</time>
      </trkpt>
      <trkpt lat="45.25468" lon="6.03409">
        <ele>2135.4560546875</ele>
        <time>2017-11-22T08:23:14Z</time>
      </trkpt>
      <trkpt lat="45.25461" lon="6.0342">
        <ele>2135.4560546875</ele>
        <time>2017-11-22T08:23:16Z</time>
      </trkpt>
      <trkpt lat="45.25457" lon="6.03429">
        <ele>2135.4560546875</ele>
        <time>2017-11-22T08:23:18Z</time>
      </trkpt>
      <trkpt lat="45.25454" lon="6.03436">
        <ele>2137.4560546875</ele>
        <time>2017-11-22T08:23:20Z</time>
      </trkpt>
      <trkpt lat="45.25451" lon="6.03448">
        <ele>2138.4560546875</ele>
        <time>2017-11-22T08:23:23Z</time>
      </trkpt>
      <trkpt lat="45.25452" lon="6.03456">
        <ele>2137.4560546875</ele>
        <time>2017-11-22T08:23:25Z</time>
      </trkpt>
      <trkpt lat="45.25452" lon="6.03464">
        <ele>2136.4560546875</ele>
        <time>2017-11-22T08:23:27Z</time>
      </trkpt>
      <trkpt lat="45.25449" lon="6.0347">
        <ele>2136.4560546875</ele>
        <time>2017-11-22T08:23:29Z</time>
      </trkpt>
      <trkpt lat="45.25444" lon="6.0347">
        <ele>2134.4560546875</ele>
        <time>2017-11-22T08:23:32Z</time>
      </trkpt>
      <trkpt lat="45.25435" lon="6.03471">
        <ele>2132.4560546875</ele>
        <time>2017-11-22T08:23:34Z</time>
      </trkpt>
      <trkpt lat="45.25425" lon="6.03474">
        <ele>2131.4560546875</ele>
        <time>2017-11-22T08:23:36Z</time>
      </trkpt>
      <trkpt lat="45.25416" lon="6.03478">
        <ele>2130.4560546875</ele>
        <time>2017-11-22T08:23:38Z</time>
      </trkpt>
      <trkpt lat="45.25403" lon="6.03486">
        <ele>2129.4560546875</ele>
        <time>2017-11-22T08:23:41Z</time>
      </trkpt>
      <trkpt lat="45.25396" lon="6.03488">
        <ele>2127.4560546875</ele>
        <time>2017-11-22T08:23:43Z</time>
      </trkpt>
      <trkpt lat="45.25387" lon="6.03495">
        <ele>2125.4560546875</ele>
        <time>2017-11-22T08:23:45Z</time>
      </trkpt>
      <trkpt lat="45.25374" lon="6.03503">
        <ele>2123.4560546875</ele>
        <time>2017-11-22T08:23:47Z</time>
      </trkpt>
      <trkpt lat="45.25361" lon="6.03514">
        <ele>2120.4560546875</ele>
        <time>2017-11-22T08:23:49Z</time>
      </trkpt>
      <trkpt lat="45.25349" lon="6.03524">
        <ele>2118.4560546875</ele>
        <time>2017-11-22T08:23:51Z</time>
      </trkpt>
      <trkpt lat="45.2534" lon="6.03532">
        <ele>2117.4560546875</ele>
        <time>2017-11-22T08:23:53Z</time>
      </trkpt>
      <trkpt lat="45.25331" lon="6.03537">
        <ele>2114.4560546875</ele>
        <time>2017-11-22T08:23:55Z</time>
      </trkpt>
      <trkpt lat="45.25323" lon="6.03543">
        <ele>2112.4560546875</ele>
        <time>2017-11-22T08:23:57Z</time>
      </trkpt>
      <trkpt lat="45.2531" lon="6.03551">
        <ele>2110.455078125</ele>
        <time>2017-11-22T08:24:00Z</time>
      </trkpt>
      <trkpt lat="45.25298" lon="6.03557">
        <ele>2106.455078125</ele>
        <time>2017-11-22T08:24:03Z</time>
      </trkpt>
      <trkpt lat="45.25293" lon="6.03559">
        <ele>2104.455078125</ele>
        <time>2017-11-22T08:24:05Z</time>
      </trkpt>
      <trkpt lat="45.25289" lon="6.03561">
        <ele>2102.455078125</ele>
        <time>2017-11-22T08:24:28Z</time>
      </trkpt>
      <trkpt lat="45.25281" lon="6.03565">
        <ele>2101.455078125</ele>
        <time>2017-11-22T08:24:30Z</time>
      </trkpt>
      <trkpt lat="45.25276" lon="6.03566">
        <ele>2098.455078125</ele>
        <time>2017-11-22T08:24:32Z</time>
      </trkpt>
      <trkpt lat="45.25265" lon="6.03569">
        <ele>2095.455078125</ele>
        <time>2017-11-22T08:24:34Z</time>
      </trkpt>
      <trkpt lat="45.25253" lon="6.03572">
        <ele>2093.455078125</ele>
        <time>2017-11-22T08:24:36Z</time>
      </trkpt>
      <trkpt lat="45.2524" lon="6.0358">
        <ele>2092.455078125</ele>
        <time>2017-11-22T08:24:39Z</time>
      </trkpt>
      <trkpt lat="45.25233" lon="6.03588">
        <ele>2091.455078125</ele>
        <time>2017-11-22T08:24:41Z</time>
      </trkpt>
      <trkpt lat="45.25224" lon="6.03595">
        <ele>2088.455078125</ele>
        <time>2017-11-22T08:24:43Z</time>
      </trkpt>
      <trkpt lat="45.2522" lon="6.03598">
        <ele>2088.455078125</ele>
        <time>2017-11-22T08:24:44Z</time>
      </trkpt>
      <trkpt lat="45.25211" lon="6.03603">
        <ele>2087.455078125</ele>
        <time>2017-11-22T08:24:46Z</time>
      </trkpt>
      <trkpt lat="45.25204" lon="6.03607">
        <ele>2085.455078125</ele>
        <time>2017-11-22T08:24:48Z</time>
      </trkpt>
      <trkpt lat="45.25197" lon="6.03611">
        <ele>2085.455078125</ele>
        <time>2017-11-22T08:24:50Z</time>
      </trkpt>
      <trkpt lat="45.25193" lon="6.03614">
        <ele>2085.455078125</ele>
        <time>2017-11-22T08:24:52Z</time>
      </trkpt>
      <trkpt lat="45.25189" lon="6.03619">
        <ele>2081.455078125</ele>
        <time>2017-11-22T08:24:54Z</time>
      </trkpt>
      <trkpt lat="45.25187" lon="6.03628">
        <ele>2078.455078125</ele>
        <time>2017-11-22T08:24:56Z</time>
      </trkpt>
      <trkpt lat="45.25185" lon="6.03639">
        <ele>2077.455078125</ele>
        <time>2017-11-22T08:24:58Z</time>
      </trkpt>
      <trkpt lat="45.25176" lon="6.03651">
        <ele>2074.455078125</ele>
        <time>2017-11-22T08:25:01Z</time>
      </trkpt>
      <trkpt lat="45.25173" lon="6.0366">
        <ele>2072.455078125</ele>
        <time>2017-11-22T08:25:03Z</time>
      </trkpt>
      <trkpt lat="45.25185" lon="6.03665">
        <ele>2068.455078125</ele>
        <time>2017-11-22T08:25:05Z</time>
      </trkpt>
      <trkpt lat="45.25185" lon="6.03673">
        <ele>2068.455078125</ele>
        <time>2017-11-22T08:25:07Z</time>
      </trkpt>
      <trkpt lat="45.25181" lon="6.03684">
        <ele>2064.455078125</ele>
        <time>2017-11-22T08:25:09Z</time>
      </trkpt>
      <trkpt lat="45.25186" lon="6.03689">
        <ele>2061.455078125</ele>
        <time>2017-11-22T08:25:10Z</time>
      </trkpt>
      <trkpt lat="45.25183" lon="6.03699">
        <ele>2056.455078125</ele>
        <time>2017-11-22T08:25:13Z</time>
      </trkpt>
      <trkpt lat="45.25187" lon="6.03706">
        <ele>2053.455078125</ele>
        <time>2017-11-22T08:25:15Z</time>
      </trkpt>
      <trkpt lat="45.25191" lon="6.03709">
        <ele>2050.455078125</ele>
        <time>2017-11-22T08:25:21Z</time>
      </trkpt>
      <trkpt lat="45.25194" lon="6.03715">
        <ele>2046.4549560547</ele>
        <time>2017-11-22T08:25:24Z</time>
      </trkpt>
      <trkpt lat="45.25189" lon="6.03718">
        <ele>2044.4549560547</ele>
        <time>2017-11-22T08:25:26Z</time>
      </trkpt>
      <trkpt lat="45.25183" lon="6.0372">
        <ele>2041.4549560547</ele>
        <time>2017-11-22T08:25:28Z</time>
      </trkpt>
      <trkpt lat="45.25176" lon="6.03724">
        <ele>2040.4549560547</ele>
        <time>2017-11-22T08:25:30Z</time>
      </trkpt>
      <trkpt lat="45.25172" lon="6.03728">
        <ele>2042.4549560547</ele>
        <time>2017-11-22T08:25:36Z</time>
      </trkpt>
      <trkpt lat="45.25167" lon="6.03731">
        <ele>2036.4549560547</ele>
        <time>2017-11-22T08:25:58Z</time>
      </trkpt>
      <trkpt lat="45.25161" lon="6.0373">
        <ele>2034.4549560547</ele>
        <time>2017-11-22T08:26:00Z</time>
      </trkpt>
      <trkpt lat="45.25152" lon="6.03733">
        <ele>2031.4549560547</ele>
        <time>2017-11-22T08:26:02Z</time>
      </trkpt>
      <trkpt lat="45.25147" lon="6.03737">
        <ele>2026.4549560547</ele>
        <time>2017-11-22T08:26:05Z</time>
      </trkpt>
      <trkpt lat="45.25147" lon="6.03745">
        <ele>2024.4549560547</ele>
        <time>2017-11-22T08:26:11Z</time>
      </trkpt>
      <trkpt lat="45.25148" lon="6.03752">
        <ele>2023.4549560547</ele>
        <time>2017-11-22T08:26:13Z</time>
      </trkpt>
      <trkpt lat="45.25149" lon="6.03759">
        <ele>2024.4549560547</ele>
        <time>2017-11-22T08:26:16Z</time>
      </trkpt>
      <trkpt lat="45.25154" lon="6.0376">
        <ele>2023.4549560547</ele>
        <time>2017-11-22T08:26:18Z</time>
      </trkpt>
      <trkpt lat="45.25149" lon="6.03765">
        <ele>2019.4549560547</ele>
        <time>2017-11-22T08:26:20Z</time>
      </trkpt>
      <trkpt lat="45.25145" lon="6.03769">
        <ele>2018.4549560547</ele>
        <time>2017-11-22T08:26:23Z</time>
      </trkpt>
      <trkpt lat="45.25148" lon="6.03772">
        <ele>2015.4549560547</ele>
        <time>2017-11-22T08:26:25Z</time>
      </trkpt>
      <trkpt lat="45.25147" lon="6.03779">
        <ele>2013.4549560547</ele>
        <time>2017-11-22T08:26:28Z</time>
      </trkpt>
      <trkpt lat="45.25143" lon="6.03783">
        <ele>2009.4549560547</ele>
        <time>2017-11-22T08:26:47Z</time>
      </trkpt>
      <trkpt lat="45.25137" lon="6.0379">
        <ele>2007.4549560547</ele>
        <time>2017-11-22T08:26:49Z</time>
      </trkpt>
      <trkpt lat="45.25127" lon="6.03799">
        <ele>2005.4549560547</ele>
        <time>2017-11-22T08:26:51Z</time>
      </trkpt>
      <trkpt lat="45.25121" lon="6.03804">
        <ele>2003.4549560547</ele>
        <time>2017-11-22T08:26:53Z</time>
      </trkpt>
      <trkpt lat="45.25117" lon="6.03808">
        <ele>1999.4549560547</ele>
        <time>2017-11-22T08:26:56Z</time>
      </trkpt>
      <trkpt lat="45.25108" lon="6.03816">
        <ele>1993.4549560547</ele>
        <time>2017-11-22T08:27:00Z</time>
      </trkpt>
      <trkpt lat="45.25096" lon="6.03826">
        <ele>1994.4549560547</ele>
        <time>2017-11-22T08:27:02Z</time>
      </trkpt>
      <trkpt lat="45.2509" lon="6.03829">
        <ele>1992.4549560547</ele>
        <time>2017-11-22T08:27:03Z</time>
      </trkpt>
      <trkpt lat="45.2508" lon="6.0383">
        <ele>1989.4549560547</ele>
        <time>2017-11-22T08:27:05Z</time>
      </trkpt>
      <trkpt lat="45.25071" lon="6.03832">
        <ele>1987.4549560547</ele>
        <time>2017-11-22T08:27:07Z</time>
      </trkpt>
      <trkpt lat="45.25054" lon="6.03836">
        <ele>1984.4549560547</ele>
        <time>2017-11-22T08:27:10Z</time>
      </trkpt>
      <trkpt lat="45.25042" lon="6.03839">
        <ele>1983.4549560547</ele>
        <time>2017-11-22T08:27:12Z</time>
      </trkpt>
      <trkpt lat="45.2503" lon="6.03845">
        <ele>1982.4549560547</ele>
        <time>2017-11-22T08:27:14Z</time>
      </trkpt>
      <trkpt lat="45.25021" lon="6.03856">
        <ele>1981.4549560547</ele>
        <time>2017-11-22T08:27:16Z</time>
      </trkpt>
      <trkpt lat="45.25014" lon="6.03867">
        <ele>1981.4549560547</ele>
        <time>2017-11-22T08:27:18Z</time>
      </trkpt>
      <trkpt lat="45.2501" lon="6.03872">
        <ele>1982.4549560547</ele>
        <time>2017-11-22T08:27:20Z</time>
      </trkpt>
      <trkpt lat="45.25003" lon="6.03875">
        <ele>1977.4549560547</ele>
        <time>2017-11-22T08:27:22Z</time>
      </trkpt>
      <trkpt lat="45.24995" lon="6.03875">
        <ele>1975.4549560547</ele>
        <time>2017-11-22T08:27:24Z</time>
      </trkpt>
      <trkpt lat="45.24986" lon="6.03877">
        <ele>1973.4549560547</ele>
        <time>2017-11-22T08:27:26Z</time>
      </trkpt>
      <trkpt lat="45.24977" lon="6.03883">
        <ele>1973.4549560547</ele>
        <time>2017-11-22T08:27:28Z</time>
      </trkpt>
      <trkpt lat="45.24971" lon="6.03889">
        <ele>1972.4549560547</ele>
        <time>2017-11-22T08:27:30Z</time>
      </trkpt>
      <trkpt lat="45.24969" lon="6.03896">
        <ele>1971.4549560547</ele>
        <time>2017-11-22T08:27:31Z</time>
      </trkpt>
      <trkpt lat="45.2496" lon="6.0391">
        <ele>1970.4549560547</ele>
        <time>2017-11-22T08:27:33Z</time>
      </trkpt>
      <trkpt lat="45.2495" lon="6.03923">
        <ele>1970.4549560547</ele>
        <time>2017-11-22T08:27:36Z</time>
      </trkpt>
      <trkpt lat="45.24945" lon="6.03929">
        <ele>1970.4549560547</ele>
        <time>2017-11-22T08:27:38Z</time>
      </trkpt>
      <trkpt lat="45.24938" lon="6.0393">
        <ele>1967.4549560547</ele>
        <time>2017-11-22T08:27:40Z</time>
      </trkpt>
      <trkpt lat="45.24928" lon="6.03944">
        <ele>1964.4549560547</ele>
        <time>2017-11-22T08:27:43Z</time>
      </trkpt>
      <trkpt lat="45.24922" lon="6.03953">
        <ele>1963.4549560547</ele>
        <time>2017-11-22T08:27:45Z</time>
      </trkpt>
      <trkpt lat="45.24918" lon="6.03959">
        <ele>1963.4549560547</ele>
        <time>2017-11-22T08:27:46Z</time>
      </trkpt>
      <trkpt lat="45.2491" lon="6.03969">
        <ele>1961.4549560547</ele>
        <time>2017-11-22T08:27:48Z</time>
      </trkpt>
      <trkpt lat="45.24904" lon="6.0398">
        <ele>1960.4549560547</ele>
        <time>2017-11-22T08:27:50Z</time>
      </trkpt>
      <trkpt lat="45.24904" lon="6.03987">
        <ele>1958.4549560547</ele>
        <time>2017-11-22T08:27:53Z</time>
      </trkpt>
      <trkpt lat="45.24901" lon="6.03993">
        <ele>1958.4549560547</ele>
        <time>2017-11-22T08:27:57Z</time>
      </trkpt>
      <trkpt lat="45.24895" lon="6.04005">
        <ele>1955.4549560547</ele>
        <time>2017-11-22T08:28:01Z</time>
      </trkpt>
      <trkpt lat="45.24898" lon="6.04014">
        <ele>1953.4549560547</ele>
        <time>2017-11-22T08:28:08Z</time>
      </trkpt>
      <trkpt lat="45.24901" lon="6.04022">
        <ele>1949.4549560547</ele>
        <time>2017-11-22T08:28:10Z</time>
      </trkpt>
      <trkpt lat="45.24898" lon="6.04028">
        <ele>1945.4549560547</ele>
        <time>2017-11-22T08:28:12Z</time>
      </trkpt>
      <trkpt lat="45.24894" lon="6.04034">
        <ele>1945.4549560547</ele>
        <time>2017-11-22T08:28:16Z</time>
      </trkpt>
      <trkpt lat="45.2489" lon="6.0404">
        <ele>1942.4549560547</ele>
        <time>2017-11-22T08:28:18Z</time>
      </trkpt>
      <trkpt lat="45.24885" lon="6.04045">
        <ele>1941.4549560547</ele>
        <time>2017-11-22T08:28:21Z</time>
      </trkpt>
      <trkpt lat="45.24882" lon="6.04053">
        <ele>1942.4549560547</ele>
        <time>2017-11-22T08:28:23Z</time>
      </trkpt>
      <trkpt lat="45.24878" lon="6.04063">
        <ele>1941.4549560547</ele>
        <time>2017-11-22T08:28:25Z</time>
      </trkpt>
      <trkpt lat="45.24876" lon="6.04071">
        <ele>1942.4549560547</ele>
        <time>2017-11-22T08:28:26Z</time>
      </trkpt>
      <trkpt lat="45.24874" lon="6.04078">
        <ele>1942.4549560547</ele>
        <time>2017-11-22T08:28:29Z</time>
      </trkpt>
      <trkpt lat="45.2487" lon="6.04081">
        <ele>1941.4549560547</ele>
        <time>2017-11-22T08:31:29Z</time>
      </trkpt>
      <trkpt lat="45.24868" lon="6.04088">
        <ele>1941.4549560547</ele>
        <time>2017-11-22T08:31:43Z</time>
      </trkpt>
      <trkpt lat="45.24864" lon="6.04092">
        <ele>1938.4549560547</ele>
        <time>2017-11-22T08:32:22Z</time>
      </trkpt>
      <trkpt lat="45.2486" lon="6.04088">
        <ele>1928.4549560547</ele>
        <time>2017-11-22T08:32:25Z</time>
      </trkpt>
      <trkpt lat="45.24856" lon="6.04085">
        <ele>1926.4549560547</ele>
        <time>2017-11-22T08:32:30Z</time>
      </trkpt>
      <trkpt lat="45.24851" lon="6.04088">
        <ele>1926.4549560547</ele>
        <time>2017-11-22T08:32:34Z</time>
      </trkpt>
      <trkpt lat="45.24847" lon="6.04092">
        <ele>1928.4549560547</ele>
        <time>2017-11-22T08:32:38Z</time>
      </trkpt>
      <trkpt lat="45.24842" lon="6.04095">
        <ele>1928.4549560547</ele>
        <time>2017-11-22T08:32:42Z</time>
      </trkpt>
      <trkpt lat="45.24836" lon="6.04098">
        <ele>1929.4549560547</ele>
        <time>2017-11-22T08:32:46Z</time>
      </trkpt>
      <trkpt lat="45.24832" lon="6.04102">
        <ele>1930.4549560547</ele>
        <time>2017-11-22T08:32:50Z</time>
      </trkpt>
      <trkpt lat="45.24828" lon="6.04105">
        <ele>1929.4549560547</ele>
        <time>2017-11-22T08:32:54Z</time>
      </trkpt>
      <trkpt lat="45.24824" lon="6.04108">
        <ele>1931.4549560547</ele>
        <time>2017-11-22T08:33:00Z</time>
      </trkpt>
      <trkpt lat="45.24819" lon="6.0411">
        <ele>1929.4549560547</ele>
        <time>2017-11-22T08:33:03Z</time>
      </trkpt>
      <trkpt lat="45.24815" lon="6.04113">
        <ele>1928.4549560547</ele>
        <time>2017-11-22T08:33:08Z</time>
      </trkpt>
      <trkpt lat="45.24811" lon="6.04115">
        <ele>1928.4549560547</ele>
        <time>2017-11-22T08:33:12Z</time>
      </trkpt>
      <trkpt lat="45.24808" lon="6.0412">
        <ele>1930.4549560547</ele>
        <time>2017-11-22T08:33:17Z</time>
      </trkpt>
      <trkpt lat="45.24804" lon="6.04125">
        <ele>1931.4549560547</ele>
        <time>2017-11-22T08:33:22Z</time>
      </trkpt>
      <trkpt lat="45.24799" lon="6.04128">
        <ele>1930.4549560547</ele>
        <time>2017-11-22T08:33:27Z</time>
      </trkpt>
      <trkpt lat="45.24795" lon="6.04132">
        <ele>1932.4549560547</ele>
        <time>2017-11-22T08:33:34Z</time>
      </trkpt>
      <trkpt lat="45.2479" lon="6.04132">
        <ele>1929.4549560547</ele>
        <time>2017-11-22T08:33:40Z</time>
      </trkpt>
      <trkpt lat="45.24785" lon="6.04132">
        <ele>1928.4549560547</ele>
        <time>2017-11-22T08:33:45Z</time>
      </trkpt>
      <trkpt lat="45.2478" lon="6.04134">
        <ele>1931.4549560547</ele>
        <time>2017-11-22T08:33:53Z</time>
      </trkpt>
      <trkpt lat="45.24775" lon="6.04132">
        <ele>1934.4549560547</ele>
        <time>2017-11-22T08:34:01Z</time>
      </trkpt>
      <trkpt lat="45.24771" lon="6.04129">
        <ele>1938.4549560547</ele>
        <time>2017-11-22T08:34:09Z</time>
      </trkpt>
      <trkpt lat="45.24766" lon="6.04125">
        <ele>1939.4549560547</ele>
        <time>2017-11-22T08:34:17Z</time>
      </trkpt>
      <trkpt lat="45.24762" lon="6.04126">
        <ele>1942.4549560547</ele>
        <time>2017-11-22T08:34:24Z</time>
      </trkpt>
      <trkpt lat="45.24757" lon="6.04129">
        <ele>1944.4549560547</ele>
        <time>2017-11-22T08:34:30Z</time>
      </trkpt>
      <trkpt lat="45.24752" lon="6.04132">
        <ele>1950.4549560547</ele>
        <time>2017-11-22T08:34:36Z</time>
      </trkpt>
      <trkpt lat="45.24748" lon="6.0413">
        <ele>1950.4549560547</ele>
        <time>2017-11-22T08:34:42Z</time>
      </trkpt>
      <trkpt lat="45.24745" lon="6.04125">
        <ele>1950.4549560547</ele>
        <time>2017-11-22T08:34:47Z</time>
      </trkpt>
      <trkpt lat="45.24742" lon="6.0412">
        <ele>1953.4549560547</ele>
        <time>2017-11-22T08:34:55Z</time>
      </trkpt>
      <trkpt lat="45.24737" lon="6.04122">
        <ele>1955.4549560547</ele>
        <time>2017-11-22T08:35:01Z</time>
      </trkpt>
      <trkpt lat="45.24732" lon="6.04121">
        <ele>1957.4549560547</ele>
        <time>2017-11-22T08:35:07Z</time>
      </trkpt>
      <trkpt lat="45.24728" lon="6.04118">
        <ele>1959.4549560547</ele>
        <time>2017-11-22T08:35:13Z</time>
      </trkpt>
      <trkpt lat="45.24725" lon="6.04111">
        <ele>1961.4549560547</ele>
        <time>2017-11-22T08:35:24Z</time>
      </trkpt>
      <trkpt lat="45.24721" lon="6.04107">
        <ele>1965.4549560547</ele>
        <time>2017-11-22T08:35:34Z</time>
      </trkpt>
      <trkpt lat="45.24716" lon="6.04105">
        <ele>1965.4549560547</ele>
        <time>2017-11-22T08:35:41Z</time>
      </trkpt>
      <trkpt lat="45.2471" lon="6.04103">
        <ele>1971.4549560547</ele>
        <time>2017-11-22T08:35:55Z</time>
      </trkpt>
      <trkpt lat="45.24707" lon="6.04108">
        <ele>1972.4549560547</ele>
        <time>2017-11-22T08:36:02Z</time>
      </trkpt>
      <trkpt lat="45.24702" lon="6.0411">
        <ele>1972.4549560547</ele>
        <time>2017-11-22T08:36:10Z</time>
      </trkpt>
      <trkpt lat="45.24697" lon="6.04113">
        <ele>1973.4549560547</ele>
        <time>2017-11-22T08:36:14Z</time>
      </trkpt>
      <trkpt lat="45.24693" lon="6.04118">
        <ele>1980.4549560547</ele>
        <time>2017-11-22T08:36:28Z</time>
      </trkpt>
      <trkpt lat="45.24689" lon="6.04123">
        <ele>1983.4549560547</ele>
        <time>2017-11-22T08:36:34Z</time>
      </trkpt>
      <trkpt lat="45.24687" lon="6.04129">
        <ele>1984.4549560547</ele>
        <time>2017-11-22T08:36:38Z</time>
      </trkpt>
      <trkpt lat="45.24684" lon="6.04134">
        <ele>1985.4549560547</ele>
        <time>2017-11-22T08:36:43Z</time>
      </trkpt>
      <trkpt lat="45.24681" lon="6.04139">
        <ele>1985.4549560547</ele>
        <time>2017-11-22T08:36:47Z</time>
      </trkpt>
      <trkpt lat="45.24677" lon="6.04146">
        <ele>1986.4549560547</ele>
        <time>2017-11-22T08:36:52Z</time>
      </trkpt>
      <trkpt lat="45.24674" lon="6.04152">
        <ele>1993.4549560547</ele>
        <time>2017-11-22T08:37:01Z</time>
      </trkpt>
      <trkpt lat="45.24672" lon="6.04158">
        <ele>1993.4549560547</ele>
        <time>2017-11-22T08:37:10Z</time>
      </trkpt>
      <trkpt lat="45.24667" lon="6.04155">
        <ele>1998.4549560547</ele>
        <time>2017-11-22T08:37:29Z</time>
      </trkpt>
      <trkpt lat="45.24663" lon="6.04151">
        <ele>1994.4549560547</ele>
        <time>2017-11-22T08:37:33Z</time>
      </trkpt>
      <trkpt lat="45.24659" lon="6.04149">
        <ele>1994.4549560547</ele>
        <time>2017-11-22T08:37:37Z</time>
      </trkpt>
      <trkpt lat="45.24659" lon="6.04142">
        <ele>2003.4549560547</ele>
        <time>2017-11-22T08:37:50Z</time>
      </trkpt>
      <trkpt lat="45.24654" lon="6.0414">
        <ele>2000.4549560547</ele>
        <time>2017-11-22T08:37:57Z</time>
      </trkpt>
      <trkpt lat="45.24654" lon="6.04133">
        <ele>2002.4549560547</ele>
        <time>2017-11-22T08:38:01Z</time>
      </trkpt>
      <trkpt lat="45.24651" lon="6.04126">
        <ele>2003.4549560547</ele>
        <time>2017-11-22T08:38:07Z</time>
      </trkpt>
      <trkpt lat="45.24649" lon="6.04121">
        <ele>2000.4549560547</ele>
        <time>2017-11-22T08:38:13Z</time>
      </trkpt>
      <trkpt lat="45.24645" lon="6.04117">
        <ele>2002.4549560547</ele>
        <time>2017-11-22T08:38:18Z</time>
      </trkpt>
      <trkpt lat="45.24643" lon="6.04111">
        <ele>2003.4549560547</ele>
        <time>2017-11-22T08:38:27Z</time>
      </trkpt>
      <trkpt lat="45.24638" lon="6.04107">
        <ele>2003.4549560547</ele>
        <time>2017-11-22T08:38:33Z</time>
      </trkpt>
      <trkpt lat="45.24637" lon="6.041">
        <ele>2001.4549560547</ele>
        <time>2017-11-22T08:38:40Z</time>
      </trkpt>
      <trkpt lat="45.24634" lon="6.04094">
        <ele>2000.4549560547</ele>
        <time>2017-11-22T08:38:44Z</time>
      </trkpt>
      <trkpt lat="45.24632" lon="6.04088">
        <ele>2004.4549560547</ele>
        <time>2017-11-22T08:38:50Z</time>
      </trkpt>
      <trkpt lat="45.24632" lon="6.04081">
        <ele>2009.4549560547</ele>
        <time>2017-11-22T08:38:54Z</time>
      </trkpt>
      <trkpt lat="45.24633" lon="6.04073">
        <ele>2011.4549560547</ele>
        <time>2017-11-22T08:39:02Z</time>
      </trkpt>
      <trkpt lat="45.24632" lon="6.04067">
        <ele>2012.4549560547</ele>
        <time>2017-11-22T08:39:10Z</time>
      </trkpt>
      <trkpt lat="45.24629" lon="6.0406">
        <ele>2008.4549560547</ele>
        <time>2017-11-22T08:39:16Z</time>
      </trkpt>
      <trkpt lat="45.24625" lon="6.04054">
        <ele>2012.4549560547</ele>
        <time>2017-11-22T08:39:25Z</time>
      </trkpt>
      <trkpt lat="45.24623" lon="6.04047">
        <ele>2016.4549560547</ele>
        <time>2017-11-22T08:39:33Z</time>
      </trkpt>
      <trkpt lat="45.24621" lon="6.04038">
        <ele>2020.4549560547</ele>
        <time>2017-11-22T08:39:39Z</time>
      </trkpt>
      <trkpt lat="45.24623" lon="6.04032">
        <ele>2022.4549560547</ele>
        <time>2017-11-22T08:39:44Z</time>
      </trkpt>
      <trkpt lat="45.24623" lon="6.04025">
        <ele>2022.4549560547</ele>
        <time>2017-11-22T08:39:50Z</time>
      </trkpt>
      <trkpt lat="45.24623" lon="6.04018">
        <ele>2026.4549560547</ele>
        <time>2017-11-22T08:39:55Z</time>
      </trkpt>
      <trkpt lat="45.24625" lon="6.04011">
        <ele>2031.4549560547</ele>
        <time>2017-11-22T08:40:04Z</time>
      </trkpt>
      <trkpt lat="45.24626" lon="6.04004">
        <ele>2033.4549560547</ele>
        <time>2017-11-22T08:40:09Z</time>
      </trkpt>
      <trkpt lat="45.24624" lon="6.03998">
        <ele>2031.4549560547</ele>
        <time>2017-11-22T08:40:15Z</time>
      </trkpt>
      <trkpt lat="45.24619" lon="6.03998">
        <ele>2026.4549560547</ele>
        <time>2017-11-22T08:40:20Z</time>
      </trkpt>
      <trkpt lat="45.24616" lon="6.04004">
        <ele>2026.4549560547</ele>
        <time>2017-11-22T08:40:29Z</time>
      </trkpt>
      <trkpt lat="45.24611" lon="6.04009">
        <ele>2028.4549560547</ele>
        <time>2017-11-22T08:40:35Z</time>
      </trkpt>
      <trkpt lat="45.24606" lon="6.04012">
        <ele>2027.4549560547</ele>
        <time>2017-11-22T08:40:41Z</time>
      </trkpt>
      <trkpt lat="45.24602" lon="6.04014">
        <ele>2031.4549560547</ele>
        <time>2017-11-22T08:40:46Z</time>
      </trkpt>
      <trkpt lat="45.246" lon="6.04007">
        <ele>2036.4549560547</ele>
        <time>2017-11-22T08:40:58Z</time>
      </trkpt>
      <trkpt lat="45.24597" lon="6.04001">
        <ele>2035.4549560547</ele>
        <time>2017-11-22T08:41:05Z</time>
      </trkpt>
      <trkpt lat="45.24597" lon="6.03994">
        <ele>2037.4549560547</ele>
        <time>2017-11-22T08:41:12Z</time>
      </trkpt>
      <trkpt lat="45.24598" lon="6.03986">
        <ele>2038.4549560547</ele>
        <time>2017-11-22T08:41:21Z</time>
      </trkpt>
      <trkpt lat="45.24601" lon="6.03981">
        <ele>2037.4549560547</ele>
        <time>2017-11-22T08:41:31Z</time>
      </trkpt>
      <trkpt lat="45.24597" lon="6.03979">
        <ele>2040.4549560547</ele>
        <time>2017-11-22T08:41:37Z</time>
      </trkpt>
      <trkpt lat="45.24593" lon="6.03982">
        <ele>2046.4549560547</ele>
        <time>2017-11-22T08:41:43Z</time>
      </trkpt>
      <trkpt lat="45.24588" lon="6.03981">
        <ele>2048.455078125</ele>
        <time>2017-11-22T08:42:02Z</time>
      </trkpt>
      <trkpt lat="45.24584" lon="6.03985">
        <ele>2051.455078125</ele>
        <time>2017-11-22T08:42:08Z</time>
      </trkpt>
      <trkpt lat="45.24579" lon="6.03986">
        <ele>2053.455078125</ele>
        <time>2017-11-22T08:42:12Z</time>
      </trkpt>
      <trkpt lat="45.24574" lon="6.03986">
        <ele>2061.455078125</ele>
        <time>2017-11-22T08:42:20Z</time>
      </trkpt>
      <trkpt lat="45.24575" lon="6.03979">
        <ele>2067.455078125</ele>
        <time>2017-11-22T08:42:31Z</time>
      </trkpt>
      <trkpt lat="45.24578" lon="6.03973">
        <ele>2066.455078125</ele>
        <time>2017-11-22T08:42:38Z</time>
      </trkpt>
      <trkpt lat="45.24573" lon="6.03972">
        <ele>2069.455078125</ele>
        <time>2017-11-22T08:42:51Z</time>
      </trkpt>
      <trkpt lat="45.24567" lon="6.03971">
        <ele>2073.455078125</ele>
        <time>2017-11-22T08:42:59Z</time>
      </trkpt>
      <trkpt lat="45.24562" lon="6.0397">
        <ele>2073.455078125</ele>
        <time>2017-11-22T08:43:07Z</time>
      </trkpt>
      <trkpt lat="45.24558" lon="6.03967">
        <ele>2074.455078125</ele>
        <time>2017-11-22T08:43:12Z</time>
      </trkpt>
      <trkpt lat="45.24553" lon="6.03969">
        <ele>2076.455078125</ele>
        <time>2017-11-22T08:43:20Z</time>
      </trkpt>
      <trkpt lat="45.24557" lon="6.03965">
        <ele>2086.455078125</ele>
        <time>2017-11-22T08:43:33Z</time>
      </trkpt>
      <trkpt lat="45.24559" lon="6.03959">
        <ele>2086.455078125</ele>
        <time>2017-11-22T08:43:39Z</time>
      </trkpt>
      <trkpt lat="45.24554" lon="6.03957">
        <ele>2091.455078125</ele>
        <time>2017-11-22T08:44:07Z</time>
      </trkpt>
      <trkpt lat="45.24549" lon="6.03957">
        <ele>2091.455078125</ele>
        <time>2017-11-22T08:44:14Z</time>
      </trkpt>
      <trkpt lat="45.24544" lon="6.0396">
        <ele>2093.455078125</ele>
        <time>2017-11-22T08:44:27Z</time>
      </trkpt>
      <trkpt lat="45.24539" lon="6.03963">
        <ele>2097.455078125</ele>
        <time>2017-11-22T08:44:34Z</time>
      </trkpt>
      <trkpt lat="45.2454" lon="6.03956">
        <ele>2099.455078125</ele>
        <time>2017-11-22T08:44:52Z</time>
      </trkpt>
      <trkpt lat="45.24543" lon="6.0395">
        <ele>2100.455078125</ele>
        <time>2017-11-22T08:44:58Z</time>
      </trkpt>
      <trkpt lat="45.24538" lon="6.0395">
        <ele>2101.455078125</ele>
        <time>2017-11-22T08:45:18Z</time>
      </trkpt>
      <trkpt lat="45.24534" lon="6.03952">
        <ele>2107.455078125</ele>
        <time>2017-11-22T08:45:25Z</time>
      </trkpt>
      <trkpt lat="45.24528" lon="6.03951">
        <ele>2105.455078125</ele>
        <time>2017-11-22T08:45:33Z</time>
      </trkpt>
      <trkpt lat="45.24528" lon="6.03945">
        <ele>2109.4541015625</ele>
        <time>2017-11-22T08:45:49Z</time>
      </trkpt>
      <trkpt lat="45.2453" lon="6.03939">
        <ele>2107.4541015625</ele>
        <time>2017-11-22T08:45:55Z</time>
      </trkpt>
      <trkpt lat="45.24526" lon="6.0394">
        <ele>2111.4541015625</ele>
        <time>2017-11-22T08:46:08Z</time>
      </trkpt>
      <trkpt lat="45.24521" lon="6.03943">
        <ele>2115.4541015625</ele>
        <time>2017-11-22T08:46:21Z</time>
      </trkpt>
      <trkpt lat="45.24517" lon="6.03942">
        <ele>2116.4541015625</ele>
        <time>2017-11-22T08:46:26Z</time>
      </trkpt>
      <trkpt lat="45.24512" lon="6.03944">
        <ele>2115.4541015625</ele>
        <time>2017-11-22T08:46:30Z</time>
      </trkpt>
      <trkpt lat="45.24511" lon="6.03938">
        <ele>2113.4541015625</ele>
        <time>2017-11-22T08:46:49Z</time>
      </trkpt>
      <trkpt lat="45.24512" lon="6.03932">
        <ele>2114.4541015625</ele>
        <time>2017-11-22T08:47:08Z</time>
      </trkpt>
      <trkpt lat="45.24514" lon="6.03926">
        <ele>2115.4541015625</ele>
        <time>2017-11-22T08:47:16Z</time>
      </trkpt>
      <trkpt lat="45.24517" lon="6.0392">
        <ele>2119.4541015625</ele>
        <time>2017-11-22T08:47:24Z</time>
      </trkpt>
      <trkpt lat="45.24521" lon="6.03915">
        <ele>2121.4541015625</ele>
        <time>2017-11-22T08:47:28Z</time>
      </trkpt>
      <trkpt lat="45.24523" lon="6.03909">
        <ele>2126.4541015625</ele>
        <time>2017-11-22T08:47:35Z</time>
      </trkpt>
      <trkpt lat="45.24523" lon="6.03902">
        <ele>2123.4541015625</ele>
        <time>2017-11-22T08:47:43Z</time>
      </trkpt>
      <trkpt lat="45.24523" lon="6.03895">
        <ele>2125.4541015625</ele>
        <time>2017-11-22T08:47:50Z</time>
      </trkpt>
      <trkpt lat="45.24522" lon="6.03889">
        <ele>2125.4541015625</ele>
        <time>2017-11-22T08:47:57Z</time>
      </trkpt>
      <trkpt lat="45.24523" lon="6.03882">
        <ele>2129.4541015625</ele>
        <time>2017-11-22T08:48:01Z</time>
      </trkpt>
      <trkpt lat="45.24522" lon="6.03873">
        <ele>2133.4541015625</ele>
        <time>2017-11-22T08:48:08Z</time>
      </trkpt>
      <trkpt lat="45.24522" lon="6.03866">
        <ele>2134.4541015625</ele>
        <time>2017-11-22T08:48:13Z</time>
      </trkpt>
      <trkpt lat="45.24522" lon="6.03857">
        <ele>2135.4541015625</ele>
        <time>2017-11-22T08:48:18Z</time>
      </trkpt>
      <trkpt lat="45.24525" lon="6.03852">
        <ele>2131.4541015625</ele>
        <time>2017-11-22T08:48:25Z</time>
      </trkpt>
      <trkpt lat="45.24528" lon="6.03847">
        <ele>2134.4541015625</ele>
        <time>2017-11-22T08:48:28Z</time>
      </trkpt>
      <trkpt lat="45.24528" lon="6.0384">
        <ele>2135.4541015625</ele>
        <time>2017-11-22T08:48:33Z</time>
      </trkpt>
      <trkpt lat="45.24528" lon="6.03833">
        <ele>2137.4541015625</ele>
        <time>2017-11-22T08:48:37Z</time>
      </trkpt>
      <trkpt lat="45.24524" lon="6.0383">
        <ele>2138.4541015625</ele>
        <time>2017-11-22T08:48:42Z</time>
      </trkpt>
      <trkpt lat="45.2452" lon="6.03831">
        <ele>2139.4541015625</ele>
        <time>2017-11-22T08:48:49Z</time>
      </trkpt>
      <trkpt lat="45.24516" lon="6.03836">
        <ele>2140.4541015625</ele>
        <time>2017-11-22T08:48:53Z</time>
      </trkpt>
      <trkpt lat="45.24511" lon="6.03836">
        <ele>2138.4541015625</ele>
        <time>2017-11-22T08:49:01Z</time>
      </trkpt>
      <trkpt lat="45.24507" lon="6.03839">
        <ele>2136.4541015625</ele>
        <time>2017-11-22T08:49:08Z</time>
      </trkpt>
      <trkpt lat="45.24501" lon="6.03838">
        <ele>2139.4541015625</ele>
        <time>2017-11-22T08:49:13Z</time>
      </trkpt>
      <trkpt lat="45.24497" lon="6.03838">
        <ele>2134.4541015625</ele>
        <time>2017-11-22T08:49:21Z</time>
      </trkpt>
      <trkpt lat="45.24493" lon="6.03835">
        <ele>2136.4541015625</ele>
        <time>2017-11-22T08:49:26Z</time>
      </trkpt>
      <trkpt lat="45.24488" lon="6.03831">
        <ele>2140.4541015625</ele>
        <time>2017-11-22T08:49:35Z</time>
      </trkpt>
      <trkpt lat="45.24487" lon="6.03824">
        <ele>2141.4541015625</ele>
        <time>2017-11-22T08:49:45Z</time>
      </trkpt>
      <trkpt lat="45.24485" lon="6.03819">
        <ele>2143.4541015625</ele>
        <time>2017-11-22T08:49:51Z</time>
      </trkpt>
      <trkpt lat="45.24482" lon="6.03814">
        <ele>2139.4541015625</ele>
        <time>2017-11-22T08:49:57Z</time>
      </trkpt>
      <trkpt lat="45.24479" lon="6.03806">
        <ele>2141.4541015625</ele>
        <time>2017-11-22T08:50:03Z</time>
      </trkpt>
      <trkpt lat="45.24478" lon="6.03798">
        <ele>2146.4541015625</ele>
        <time>2017-11-22T08:50:10Z</time>
      </trkpt>
      <trkpt lat="45.24478" lon="6.03792">
        <ele>1148.4539794922</ele>
        <time>2017-11-22T08:50:15Z</time>
      </trkpt>
      <trkpt lat="45.24477" lon="6.03785">
        <ele>2124.4541015625</ele>
        <time>2017-11-22T08:50:24Z</time>
      </trkpt>
      <trkpt lat="45.24476" lon="6.03778">
        <ele>2142.4541015625</ele>
        <time>2017-11-22T08:50:31Z</time>
      </trkpt>
      <trkpt lat="45.24474" lon="6.03771">
        <ele>2151.4541015625</ele>
        <time>2017-11-22T08:50:35Z</time>
      </trkpt>
      <trkpt lat="45.24472" lon="6.03765">
        <ele>2154.4541015625</ele>
        <time>2017-11-22T08:50:39Z</time>
      </trkpt>
      <trkpt lat="45.24468" lon="6.03763">
        <ele>2160.4541015625</ele>
        <time>2017-11-22T08:50:48Z</time>
      </trkpt>
      <trkpt lat="45.24463" lon="6.03767">
        <ele>2162.4541015625</ele>
        <time>2017-11-22T08:50:52Z</time>
      </trkpt>
      <trkpt lat="45.24458" lon="6.03765">
        <ele>2164.4541015625</ele>
        <time>2017-11-22T08:50:59Z</time>
      </trkpt>
      <trkpt lat="45.24453" lon="6.03765">
        <ele>2161.4541015625</ele>
        <time>2017-11-22T08:51:11Z</time>
      </trkpt>
      <trkpt lat="45.24448" lon="6.03765">
        <ele>2167.4541015625</ele>
        <time>2017-11-22T08:51:18Z</time>
      </trkpt>
      <trkpt lat="45.24443" lon="6.03765">
        <ele>2170.4541015625</ele>
        <time>2017-11-22T08:51:26Z</time>
      </trkpt>
      <trkpt lat="45.24438" lon="6.03767">
        <ele>2170.4541015625</ele>
        <time>2017-11-22T08:51:32Z</time>
      </trkpt>
      <trkpt lat="45.24433" lon="6.03768">
        <ele>2173.4541015625</ele>
        <time>2017-11-22T08:51:41Z</time>
      </trkpt>
      <trkpt lat="45.24429" lon="6.03767">
        <ele>2176.4541015625</ele>
        <time>2017-11-22T08:51:49Z</time>
      </trkpt>
      <trkpt lat="45.24424" lon="6.03768">
        <ele>2174.4541015625</ele>
        <time>2017-11-22T08:51:51Z</time>
      </trkpt>
      <trkpt lat="45.2442" lon="6.03766">
        <ele>2175.4541015625</ele>
        <time>2017-11-22T08:51:58Z</time>
      </trkpt>
      <trkpt lat="45.24415" lon="6.03765">
        <ele>2169.4541015625</ele>
        <time>2017-11-22T08:52:02Z</time>
      </trkpt>
      <trkpt lat="45.24416" lon="6.03758">
        <ele>2174.4541015625</ele>
        <time>2017-11-22T08:52:10Z</time>
      </trkpt>
      <trkpt lat="45.24413" lon="6.03752">
        <ele>2175.4541015625</ele>
        <time>2017-11-22T08:52:16Z</time>
      </trkpt>
      <trkpt lat="45.24411" lon="6.03746">
        <ele>2177.4541015625</ele>
        <time>2017-11-22T08:52:22Z</time>
      </trkpt>
      <trkpt lat="45.24406" lon="6.03743">
        <ele>2180.4541015625</ele>
        <time>2017-11-22T08:52:27Z</time>
      </trkpt>
      <trkpt lat="45.24405" lon="6.03737">
        <ele>2182.4541015625</ele>
        <time>2017-11-22T08:52:35Z</time>
      </trkpt>
      <trkpt lat="45.24404" lon="6.0373">
        <ele>2184.4541015625</ele>
        <time>2017-11-22T08:52:41Z</time>
      </trkpt>
      <trkpt lat="45.24402" lon="6.03724">
        <ele>2191.4541015625</ele>
        <time>2017-11-22T08:52:46Z</time>
      </trkpt>
      <trkpt lat="45.24402" lon="6.03717">
        <ele>2190.4541015625</ele>
        <time>2017-11-22T08:52:55Z</time>
      </trkpt>
      <trkpt lat="45.24399" lon="6.0371">
        <ele>2189.4541015625</ele>
        <time>2017-11-22T08:53:02Z</time>
      </trkpt>
      <trkpt lat="45.24396" lon="6.03703">
        <ele>2191.4541015625</ele>
        <time>2017-11-22T08:53:08Z</time>
      </trkpt>
      <trkpt lat="45.24394" lon="6.03697">
        <ele>2191.4541015625</ele>
        <time>2017-11-22T08:53:18Z</time>
      </trkpt>
      <trkpt lat="45.24392" lon="6.03691">
        <ele>2190.4541015625</ele>
        <time>2017-11-22T08:53:27Z</time>
      </trkpt>
      <trkpt lat="45.24387" lon="6.03695">
        <ele>2190.4541015625</ele>
        <time>2017-11-22T08:53:43Z</time>
      </trkpt>
      <trkpt lat="45.24384" lon="6.037">
        <ele>2193.4541015625</ele>
        <time>2017-11-22T08:53:54Z</time>
      </trkpt>
      <trkpt lat="45.24382" lon="6.03707">
        <ele>2195.4541015625</ele>
        <time>2017-11-22T08:54:01Z</time>
      </trkpt>
      <trkpt lat="45.24379" lon="6.03712">
        <ele>2198.4541015625</ele>
        <time>2017-11-22T08:54:07Z</time>
      </trkpt>
      <trkpt lat="45.24374" lon="6.03717">
        <ele>2204.4541015625</ele>
        <time>2017-11-22T08:54:15Z</time>
      </trkpt>
      <trkpt lat="45.24369" lon="6.03719">
        <ele>2211.4541015625</ele>
        <time>2017-11-22T08:54:21Z</time>
      </trkpt>
      <trkpt lat="45.24364" lon="6.03723">
        <ele>2214.4541015625</ele>
        <time>2017-11-22T08:54:27Z</time>
      </trkpt>
      <trkpt lat="45.24362" lon="6.03717">
        <ele>2214.4541015625</ele>
        <time>2017-11-22T08:54:36Z</time>
      </trkpt>
      <trkpt lat="45.24363" lon="6.03711">
        <ele>2215.4541015625</ele>
        <time>2017-11-22T08:54:43Z</time>
      </trkpt>
      <trkpt lat="45.24362" lon="6.03704">
        <ele>2221.4541015625</ele>
        <time>2017-11-22T08:54:49Z</time>
      </trkpt>
      <trkpt lat="45.24361" lon="6.03697">
        <ele>2223.4541015625</ele>
        <time>2017-11-22T08:54:56Z</time>
      </trkpt>
      <trkpt lat="45.24357" lon="6.03692">
        <ele>2226.4541015625</ele>
        <time>2017-11-22T08:55:02Z</time>
      </trkpt>
      <trkpt lat="45.24355" lon="6.03686">
        <ele>2228.4541015625</ele>
        <time>2017-11-22T08:55:07Z</time>
      </trkpt>
      <trkpt lat="45.24352" lon="6.03681">
        <ele>2228.4541015625</ele>
        <time>2017-11-22T08:55:17Z</time>
      </trkpt>
      <trkpt lat="45.24349" lon="6.03675">
        <ele>2229.4541015625</ele>
        <time>2017-11-22T08:55:27Z</time>
      </trkpt>
      <trkpt lat="45.24345" lon="6.0368">
        <ele>2240.4541015625</ele>
        <time>2017-11-22T08:56:15Z</time>
      </trkpt>
      <trkpt lat="45.24342" lon="6.03686">
        <ele>2243.4541015625</ele>
        <time>2017-11-22T08:56:21Z</time>
      </trkpt>
      <trkpt lat="45.24337" lon="6.03692">
        <ele>2241.4541015625</ele>
        <time>2017-11-22T08:56:29Z</time>
      </trkpt>
      <trkpt lat="45.24333" lon="6.03695">
        <ele>2241.4541015625</ele>
        <time>2017-11-22T08:56:33Z</time>
      </trkpt>
      <trkpt lat="45.24329" lon="6.03702">
        <ele>2241.4541015625</ele>
        <time>2017-11-22T08:56:46Z</time>
      </trkpt>
      <trkpt lat="45.24326" lon="6.03706">
        <ele>2241.4541015625</ele>
        <time>2017-11-22T08:56:49Z</time>
      </trkpt>
      <trkpt lat="45.24321" lon="6.03705">
        <ele>2246.4541015625</ele>
        <time>2017-11-22T08:57:01Z</time>
      </trkpt>
      <trkpt lat="45.24319" lon="6.03698">
        <ele>2245.4541015625</ele>
        <time>2017-11-22T08:57:11Z</time>
      </trkpt>
      <trkpt lat="45.24317" lon="6.03691">
        <ele>2246.4541015625</ele>
        <time>2017-11-22T08:57:25Z</time>
      </trkpt>
      <trkpt lat="45.24314" lon="6.03685">
        <ele>2246.4541015625</ele>
        <time>2017-11-22T08:57:30Z</time>
      </trkpt>
      <trkpt lat="45.24312" lon="6.0368">
        <ele>2248.4541015625</ele>
        <time>2017-11-22T08:57:35Z</time>
      </trkpt>
      <trkpt lat="45.24312" lon="6.03673">
        <ele>2245.4541015625</ele>
        <time>2017-11-22T08:57:44Z</time>
      </trkpt>
      <trkpt lat="45.2431" lon="6.03667">
        <ele>2249.4541015625</ele>
        <time>2017-11-22T08:57:50Z</time>
      </trkpt>
      <trkpt lat="45.24306" lon="6.03671">
        <ele>2261.4541015625</ele>
        <time>2017-11-22T08:58:02Z</time>
      </trkpt>
      <trkpt lat="45.24303" lon="6.03677">
        <ele>2264.4541015625</ele>
        <time>2017-11-22T08:58:09Z</time>
      </trkpt>
      <trkpt lat="45.24301" lon="6.03682">
        <ele>2266.4541015625</ele>
        <time>2017-11-22T08:58:15Z</time>
      </trkpt>
      <trkpt lat="45.24297" lon="6.03687">
        <ele>2267.4541015625</ele>
        <time>2017-11-22T08:58:20Z</time>
      </trkpt>
      <trkpt lat="45.24295" lon="6.03694">
        <ele>2270.4541015625</ele>
        <time>2017-11-22T08:58:29Z</time>
      </trkpt>
      <trkpt lat="45.24292" lon="6.03687">
        <ele>2270.4541015625</ele>
        <time>2017-11-22T08:58:39Z</time>
      </trkpt>
      <trkpt lat="45.24291" lon="6.03681">
        <ele>2271.4541015625</ele>
        <time>2017-11-22T08:58:45Z</time>
      </trkpt>
      <trkpt lat="45.24289" lon="6.03674">
        <ele>2271.4541015625</ele>
        <time>2017-11-22T08:58:50Z</time>
      </trkpt>
      <trkpt lat="45.24288" lon="6.03667">
        <ele>2271.4541015625</ele>
        <time>2017-11-22T08:58:55Z</time>
      </trkpt>
      <trkpt lat="45.24289" lon="6.0366">
        <ele>2271.4541015625</ele>
        <time>2017-11-22T08:59:02Z</time>
      </trkpt>
      <trkpt lat="45.24288" lon="6.03654">
        <ele>2272.4541015625</ele>
        <time>2017-11-22T08:59:08Z</time>
      </trkpt>
      <trkpt lat="45.24287" lon="6.03647">
        <ele>2271.4541015625</ele>
        <time>2017-11-22T08:59:16Z</time>
      </trkpt>
      <trkpt lat="45.24287" lon="6.0364">
        <ele>2273.4541015625</ele>
        <time>2017-11-22T08:59:26Z</time>
      </trkpt>
      <trkpt lat="45.24282" lon="6.03643">
        <ele>2276.4541015625</ele>
        <time>2017-11-22T09:00:05Z</time>
      </trkpt>
      <trkpt lat="45.24279" lon="6.03648">
        <ele>2279.4541015625</ele>
        <time>2017-11-22T09:00:11Z</time>
      </trkpt>
      <trkpt lat="45.24275" lon="6.03653">
        <ele>2282.4541015625</ele>
        <time>2017-11-22T09:00:18Z</time>
      </trkpt>
      <trkpt lat="45.24272" lon="6.03658">
        <ele>2285.4541015625</ele>
        <time>2017-11-22T09:00:24Z</time>
      </trkpt>
      <trkpt lat="45.2427" lon="6.03664">
        <ele>2291.4541015625</ele>
        <time>2017-11-22T09:00:34Z</time>
      </trkpt>
      <trkpt lat="45.24267" lon="6.03671">
        <ele>2292.4541015625</ele>
        <time>2017-11-22T09:00:40Z</time>
      </trkpt>
      <trkpt lat="45.24264" lon="6.03666">
        <ele>2295.4541015625</ele>
        <time>2017-11-22T09:00:56Z</time>
      </trkpt>
      <trkpt lat="45.24263" lon="6.03658">
        <ele>2294.4541015625</ele>
        <time>2017-11-22T09:01:11Z</time>
      </trkpt>
      <trkpt lat="45.24262" lon="6.03651">
        <ele>2297.4541015625</ele>
        <time>2017-11-22T09:01:16Z</time>
      </trkpt>
      <trkpt lat="45.24261" lon="6.03644">
        <ele>2296.4541015625</ele>
        <time>2017-11-22T09:01:22Z</time>
      </trkpt>
      <trkpt lat="45.24262" lon="6.03637">
        <ele>2297.4541015625</ele>
        <time>2017-11-22T09:01:27Z</time>
      </trkpt>
      <trkpt lat="45.24263" lon="6.0363">
        <ele>2297.4541015625</ele>
        <time>2017-11-22T09:01:32Z</time>
      </trkpt>
      <trkpt lat="45.24264" lon="6.03623">
        <ele>2296.4541015625</ele>
        <time>2017-11-22T09:01:36Z</time>
      </trkpt>
      <trkpt lat="45.24265" lon="6.03615">
        <ele>2298.4541015625</ele>
        <time>2017-11-22T09:01:42Z</time>
      </trkpt>
      <trkpt lat="45.2426" lon="6.03617">
        <ele>2300.4541015625</ele>
        <time>2017-11-22T09:01:54Z</time>
      </trkpt>
      <trkpt lat="45.24256" lon="6.0362">
        <ele>2303.4541015625</ele>
        <time>2017-11-22T09:01:58Z</time>
      </trkpt>
      <trkpt lat="45.24253" lon="6.03626">
        <ele>2306.4541015625</ele>
        <time>2017-11-22T09:02:04Z</time>
      </trkpt>
      <trkpt lat="45.2425" lon="6.03631">
        <ele>2307.4541015625</ele>
        <time>2017-11-22T09:02:10Z</time>
      </trkpt>
      <trkpt lat="45.24246" lon="6.03635">
        <ele>2308.4541015625</ele>
        <time>2017-11-22T09:02:15Z</time>
      </trkpt>
      <trkpt lat="45.24246" lon="6.03629">
        <ele>2308.4528808594</ele>
        <time>2017-11-22T09:02:26Z</time>
      </trkpt>
      <trkpt lat="45.24247" lon="6.03622">
        <ele>2309.4528808594</ele>
        <time>2017-11-22T09:02:33Z</time>
      </trkpt>
      <trkpt lat="45.24246" lon="6.03614">
        <ele>2309.4528808594</ele>
        <time>2017-11-22T09:02:41Z</time>
      </trkpt>
      <trkpt lat="45.24245" lon="6.03607">
        <ele>2311.4528808594</ele>
        <time>2017-11-22T09:02:46Z</time>
      </trkpt>
      <trkpt lat="45.24244" lon="6.036">
        <ele>2311.4528808594</ele>
        <time>2017-11-22T09:02:51Z</time>
      </trkpt>
      <trkpt lat="45.24243" lon="6.03593">
        <ele>2311.4528808594</ele>
        <time>2017-11-22T09:02:58Z</time>
      </trkpt>
      <trkpt lat="45.24239" lon="6.03596">
        <ele>2316.4528808594</ele>
        <time>2017-11-22T09:03:11Z</time>
      </trkpt>
      <trkpt lat="45.24235" lon="6.036">
        <ele>2319.4528808594</ele>
        <time>2017-11-22T09:03:18Z</time>
      </trkpt>
      <trkpt lat="45.24232" lon="6.03604">
        <ele>2325.4528808594</ele>
        <time>2017-11-22T09:03:25Z</time>
      </trkpt>
      <trkpt lat="45.24229" lon="6.03609">
        <ele>2324.4528808594</ele>
        <time>2017-11-22T09:03:32Z</time>
      </trkpt>
      <trkpt lat="45.24224" lon="6.03614">
        <ele>2323.4528808594</ele>
        <time>2017-11-22T09:03:38Z</time>
      </trkpt>
      <trkpt lat="45.2422" lon="6.03618">
        <ele>2323.4528808594</ele>
        <time>2017-11-22T09:03:43Z</time>
      </trkpt>
      <trkpt lat="45.24217" lon="6.03623">
        <ele>2325.4528808594</ele>
        <time>2017-11-22T09:03:49Z</time>
      </trkpt>
      <trkpt lat="45.24214" lon="6.03629">
        <ele>2331.4528808594</ele>
        <time>2017-11-22T09:04:01Z</time>
      </trkpt>
      <trkpt lat="45.24209" lon="6.03625">
        <ele>2332.4528808594</ele>
        <time>2017-11-22T09:04:17Z</time>
      </trkpt>
      <trkpt lat="45.24208" lon="6.03619">
        <ele>2331.4528808594</ele>
        <time>2017-11-22T09:04:22Z</time>
      </trkpt>
      <trkpt lat="45.24206" lon="6.03613">
        <ele>2330.4528808594</ele>
        <time>2017-11-22T09:04:27Z</time>
      </trkpt>
      <trkpt lat="45.24206" lon="6.03606">
        <ele>2329.4528808594</ele>
        <time>2017-11-22T09:04:35Z</time>
      </trkpt>
      <trkpt lat="45.24204" lon="6.036">
        <ele>2328.4528808594</ele>
        <time>2017-11-22T09:04:42Z</time>
      </trkpt>
      <trkpt lat="45.24203" lon="6.03593">
        <ele>2328.4528808594</ele>
        <time>2017-11-22T09:05:02Z</time>
      </trkpt>
      <trkpt lat="45.24199" lon="6.03597">
        <ele>2336.4528808594</ele>
        <time>2017-11-22T09:05:18Z</time>
      </trkpt>
      <trkpt lat="45.24195" lon="6.03602">
        <ele>2341.4528808594</ele>
        <time>2017-11-22T09:05:59Z</time>
      </trkpt>
      <trkpt lat="45.24191" lon="6.03605">
        <ele>2339.4528808594</ele>
        <time>2017-11-22T09:06:03Z</time>
      </trkpt>
      <trkpt lat="45.24188" lon="6.0361">
        <ele>2340.4528808594</ele>
        <time>2017-11-22T09:06:09Z</time>
      </trkpt>
      <trkpt lat="45.24184" lon="6.03616">
        <ele>2340.4528808594</ele>
        <time>2017-11-22T09:06:16Z</time>
      </trkpt>
      <trkpt lat="45.24182" lon="6.03621">
        <ele>2344.4528808594</ele>
        <time>2017-11-22T09:06:25Z</time>
      </trkpt>
      <trkpt lat="45.2418" lon="6.03616">
        <ele>2341.4528808594</ele>
        <time>2017-11-22T09:06:35Z</time>
      </trkpt>
      <trkpt lat="45.24179" lon="6.03609">
        <ele>2342.4528808594</ele>
        <time>2017-11-22T09:06:42Z</time>
      </trkpt>
      <trkpt lat="45.2418" lon="6.03601">
        <ele>2344.4528808594</ele>
        <time>2017-11-22T09:06:47Z</time>
      </trkpt>
      <trkpt lat="45.24177" lon="6.03597">
        <ele>2345.4528808594</ele>
        <time>2017-11-22T09:07:01Z</time>
      </trkpt>
      <trkpt lat="45.24172" lon="6.03602">
        <ele>2354.4528808594</ele>
        <time>2017-11-22T09:07:40Z</time>
      </trkpt>
      <trkpt lat="45.2417" lon="6.03609">
        <ele>2357.4528808594</ele>
        <time>2017-11-22T09:07:47Z</time>
      </trkpt>
      <trkpt lat="45.24168" lon="6.03616">
        <ele>2358.4528808594</ele>
        <time>2017-11-22T09:07:54Z</time>
      </trkpt>
      <trkpt lat="45.24165" lon="6.03621">
        <ele>2364.4528808594</ele>
        <time>2017-11-22T09:08:07Z</time>
      </trkpt>
      <trkpt lat="45.24162" lon="6.03626">
        <ele>2364.4528808594</ele>
        <time>2017-11-22T09:08:18Z</time>
      </trkpt>
      <trkpt lat="45.24163" lon="6.03633">
        <ele>2364.4528808594</ele>
        <time>2017-11-22T09:08:30Z</time>
      </trkpt>
      <trkpt lat="45.24158" lon="6.03635">
        <ele>2362.4528808594</ele>
        <time>2017-11-22T09:08:37Z</time>
      </trkpt>
      <trkpt lat="45.24155" lon="6.03631">
        <ele>2362.4528808594</ele>
        <time>2017-11-22T09:08:56Z</time>
      </trkpt>
      <trkpt lat="45.24152" lon="6.03625">
        <ele>2358.4528808594</ele>
        <time>2017-11-22T09:09:02Z</time>
      </trkpt>
      <trkpt lat="45.24153" lon="6.03616">
        <ele>2359.4528808594</ele>
        <time>2017-11-22T09:09:13Z</time>
      </trkpt>
      <trkpt lat="45.24152" lon="6.03608">
        <ele>2365.4528808594</ele>
        <time>2017-11-22T09:09:18Z</time>
      </trkpt>
      <trkpt lat="45.2415" lon="6.03602">
        <ele>2365.4528808594</ele>
        <time>2017-11-22T09:09:25Z</time>
      </trkpt>
      <trkpt lat="45.24151" lon="6.03595">
        <ele>2369.4528808594</ele>
        <time>2017-11-22T09:09:28Z</time>
      </trkpt>
      <trkpt lat="45.24151" lon="6.03587">
        <ele>2371.4528808594</ele>
        <time>2017-11-22T09:09:34Z</time>
      </trkpt>
      <trkpt lat="45.24152" lon="6.03581">
        <ele>2373.4528808594</ele>
        <time>2017-11-22T09:09:44Z</time>
      </trkpt>
      <trkpt lat="45.24149" lon="6.03587">
        <ele>2374.4528808594</ele>
        <time>2017-11-22T09:10:00Z</time>
      </trkpt>
      <trkpt lat="45.24144" lon="6.03591">
        <ele>2375.4528808594</ele>
        <time>2017-11-22T09:10:05Z</time>
      </trkpt>
      <trkpt lat="45.24141" lon="6.03597">
        <ele>2378.4528808594</ele>
        <time>2017-11-22T09:10:16Z</time>
      </trkpt>
      <trkpt lat="45.24137" lon="6.03594">
        <ele>2374.4528808594</ele>
        <time>2017-11-22T09:10:40Z</time>
      </trkpt>
      <trkpt lat="45.24133" lon="6.0359">
        <ele>2382.4528808594</ele>
        <time>2017-11-22T09:11:03Z</time>
      </trkpt>
      <trkpt lat="45.24132" lon="6.03583">
        <ele>2385.4528808594</ele>
        <time>2017-11-22T09:11:27Z</time>
      </trkpt>
      <trkpt lat="45.24131" lon="6.03576">
        <ele>2386.4528808594</ele>
        <time>2017-11-22T09:11:39Z</time>
      </trkpt>
      <trkpt lat="45.24134" lon="6.03568">
        <ele>2384.4528808594</ele>
        <time>2017-11-22T09:11:43Z</time>
      </trkpt>
      <trkpt lat="45.24131" lon="6.03561">
        <ele>2382.4528808594</ele>
        <time>2017-11-22T09:12:00Z</time>
      </trkpt>
      <trkpt lat="45.24134" lon="6.03556">
        <ele>2392.4528808594</ele>
        <time>2017-11-22T09:13:05Z</time>
      </trkpt>
      <trkpt lat="45.2413" lon="6.0356">
        <ele>2395.4528808594</ele>
        <time>2017-11-22T09:13:50Z</time>
      </trkpt>
      <trkpt lat="45.24132" lon="6.03552">
        <ele>2399.4528808594</ele>
        <time>2017-11-22T09:14:03Z</time>
      </trkpt>
      <trkpt lat="45.24127" lon="6.03549">
        <ele>2400.4528808594</ele>
        <time>2017-11-22T09:14:09Z</time>
      </trkpt>
      <trkpt lat="45.24123" lon="6.03553">
        <ele>2404.4528808594</ele>
        <time>2017-11-22T09:14:25Z</time>
      </trkpt>
      <trkpt lat="45.24122" lon="6.03546">
        <ele>2407.4528808594</ele>
        <time>2017-11-22T09:14:45Z</time>
      </trkpt>
      <trkpt lat="45.2412" lon="6.0354">
        <ele>2409.4528808594</ele>
        <time>2017-11-22T09:15:01Z</time>
      </trkpt>
      <trkpt lat="45.24116" lon="6.03544">
        <ele>2412.4528808594</ele>
        <time>2017-11-22T09:15:08Z</time>
      </trkpt>
      <trkpt lat="45.24112" lon="6.0354">
        <ele>2410.4528808594</ele>
        <time>2017-11-22T09:15:29Z</time>
      </trkpt>
      <trkpt lat="45.24112" lon="6.03533">
        <ele>2411.4528808594</ele>
        <time>2017-11-22T09:15:39Z</time>
      </trkpt>
      <trkpt lat="45.24112" lon="6.03526">
        <ele>2416.4528808594</ele>
        <time>2017-11-22T09:16:20Z</time>
      </trkpt>
      <trkpt lat="45.24109" lon="6.0352">
        <ele>2419.4528808594</ele>
        <time>2017-11-22T09:16:51Z</time>
      </trkpt>
      <trkpt lat="45.24108" lon="6.03513">
        <ele>2423.4528808594</ele>
        <time>2017-11-22T09:17:08Z</time>
      </trkpt>
      <trkpt lat="45.24108" lon="6.03507">
        <ele>2429.4528808594</ele>
        <time>2017-11-22T09:17:24Z</time>
      </trkpt>
      <trkpt lat="45.24105" lon="6.03501">
        <ele>2434.4528808594</ele>
        <time>2017-11-22T09:17:54Z</time>
      </trkpt>
      <trkpt lat="45.24101" lon="6.03498">
        <ele>2439.4528808594</ele>
        <time>2017-11-22T09:18:19Z</time>
      </trkpt>
      <trkpt lat="45.24101" lon="6.03491">
        <ele>2442.4528808594</ele>
        <time>2017-11-22T09:18:49Z</time>
      </trkpt>
      <trkpt lat="45.24103" lon="6.03485">
        <ele>2446.4528808594</ele>
        <time>2017-11-22T09:19:17Z</time>
      </trkpt>
      <trkpt lat="45.24098" lon="6.03483">
        <ele>2447.4528808594</ele>
        <time>2017-11-22T09:19:29Z</time>
      </trkpt>
      <trkpt lat="45.24096" lon="6.03477">
        <ele>2454.4528808594</ele>
        <time>2017-11-22T09:19:51Z</time>
      </trkpt>
      <trkpt lat="45.24093" lon="6.03471">
        <ele>2457.4528808594</ele>
        <time>2017-11-22T09:20:21Z</time>
      </trkpt>
      <trkpt lat="45.24089" lon="6.03468">
        <ele>2454.4528808594</ele>
        <time>2017-11-22T09:20:43Z</time>
      </trkpt>
      <trkpt lat="45.24089" lon="6.03461">
        <ele>2454.4528808594</ele>
        <time>2017-11-22T09:20:46Z</time>
      </trkpt>
      <trkpt lat="45.24089" lon="6.03454">
        <ele>2455.4528808594</ele>
        <time>2017-11-22T09:20:50Z</time>
      </trkpt>
      <trkpt lat="45.2409" lon="6.03448">
        <ele>2454.4528808594</ele>
        <time>2017-11-22T09:20:53Z</time>
      </trkpt>
      <trkpt lat="45.24091" lon="6.03441">
        <ele>2457.4528808594</ele>
        <time>2017-11-22T09:21:17Z</time>
      </trkpt>
      <trkpt lat="45.24091" lon="6.03434">
        <ele>2458.4528808594</ele>
        <time>2017-11-22T09:21:21Z</time>
      </trkpt>
      <trkpt lat="45.24092" lon="6.03426">
        <ele>2459.4528808594</ele>
        <time>2017-11-22T09:21:48Z</time>
      </trkpt>
      <trkpt lat="45.24093" lon="6.03419">
        <ele>2461.4528808594</ele>
        <time>2017-11-22T09:21:53Z</time>
      </trkpt>
      <trkpt lat="45.24095" lon="6.03412">
        <ele>2462.4528808594</ele>
        <time>2017-11-22T09:21:59Z</time>
      </trkpt>
      <trkpt lat="45.24097" lon="6.03404">
        <ele>2462.4528808594</ele>
        <time>2017-11-22T09:22:04Z</time>
      </trkpt>
      <trkpt lat="45.24099" lon="6.03398">
        <ele>2462.4528808594</ele>
        <time>2017-11-22T09:22:12Z</time>
      </trkpt>
      <trkpt lat="45.241" lon="6.03392">
        <ele>2463.4528808594</ele>
        <time>2017-11-22T09:22:41Z</time>
      </trkpt>
      <trkpt lat="45.24103" lon="6.03383">
        <ele>2464.4528808594</ele>
        <time>2017-11-22T09:22:46Z</time>
      </trkpt>
      <trkpt lat="45.24105" lon="6.03377">
        <ele>2463.4528808594</ele>
        <time>2017-11-22T09:22:58Z</time>
      </trkpt>
      <trkpt lat="45.24109" lon="6.03371">
        <ele>2463.4528808594</ele>
        <time>2017-11-22T09:23:07Z</time>
      </trkpt>
      <trkpt lat="45.24113" lon="6.03367">
        <ele>2467.4528808594</ele>
        <time>2017-11-22T09:23:19Z</time>
      </trkpt>
      <trkpt lat="45.24117" lon="6.03363">
        <ele>2466.4528808594</ele>
        <time>2017-11-22T09:23:32Z</time>
      </trkpt>
      <trkpt lat="45.24122" lon="6.03361">
        <ele>2468.4528808594</ele>
        <time>2017-11-22T09:23:38Z</time>
      </trkpt>
      <trkpt lat="45.24125" lon="6.03357">
        <ele>2469.4528808594</ele>
        <time>2017-11-22T09:23:43Z</time>
      </trkpt>
      <trkpt lat="45.24129" lon="6.03352">
        <ele>2468.4528808594</ele>
        <time>2017-11-22T09:23:48Z</time>
      </trkpt>
      <trkpt lat="45.24132" lon="6.03346">
        <ele>2467.4528808594</ele>
        <time>2017-11-22T09:23:51Z</time>
      </trkpt>
      <trkpt lat="45.24136" lon="6.0334">
        <ele>2467.4528808594</ele>
        <time>2017-11-22T09:23:56Z</time>
      </trkpt>
      <trkpt lat="45.24139" lon="6.03336">
        <ele>2468.4528808594</ele>
        <time>2017-11-22T09:24:02Z</time>
      </trkpt>
      <trkpt lat="45.24142" lon="6.03329">
        <ele>2467.4528808594</ele>
        <time>2017-11-22T09:24:06Z</time>
      </trkpt>
      <trkpt lat="45.24141" lon="6.03322">
        <ele>2465.4528808594</ele>
        <time>2017-11-22T09:24:22Z</time>
      </trkpt>
      <trkpt lat="45.24145" lon="6.03319">
        <ele>2466.4528808594</ele>
        <time>2017-11-22T09:24:44Z</time>
      </trkpt>
      <trkpt lat="45.24151" lon="6.03318">
        <ele>2466.4528808594</ele>
        <time>2017-11-22T09:24:47Z</time>
      </trkpt>
      <trkpt lat="45.24156" lon="6.03317">
        <ele>2466.4528808594</ele>
        <time>2017-11-22T09:24:51Z</time>
      </trkpt>
      <trkpt lat="45.24161" lon="6.03314">
        <ele>2409.4528808594</ele>
        <time>2017-11-22T09:25:01Z</time>
      </trkpt>
      <trkpt lat="45.24164" lon="6.03309">
        <ele>2453.4528808594</ele>
        <time>2017-11-22T09:25:06Z</time>
      </trkpt>
      <trkpt lat="45.24165" lon="6.03302">
        <ele>2470.4528808594</ele>
        <time>2017-11-22T09:25:17Z</time>
      </trkpt>
      <trkpt lat="45.24164" lon="6.03295">
        <ele>2471.4528808594</ele>
        <time>2017-11-22T09:25:24Z</time>
      </trkpt>
      <trkpt lat="45.24159" lon="6.03293">
        <ele>2474.4528808594</ele>
        <time>2017-11-22T09:25:38Z</time>
      </trkpt>
      <trkpt lat="45.24162" lon="6.033">
        <ele>2480.4528808594</ele>
        <time>2017-11-22T09:31:08Z</time>
      </trkpt>
      <trkpt lat="45.24162" lon="6.03307">
        <ele>2478.4528808594</ele>
        <time>2017-11-22T09:31:13Z</time>
      </trkpt>
      <trkpt lat="45.24162" lon="6.03314">
        <ele>2474.4528808594</ele>
        <time>2017-11-22T09:31:21Z</time>
      </trkpt>
      <trkpt lat="45.24158" lon="6.0332">
        <ele>2471.4528808594</ele>
        <time>2017-11-22T09:31:26Z</time>
      </trkpt>
      <trkpt lat="45.24155" lon="6.03326">
        <ele>2469.4528808594</ele>
        <time>2017-11-22T09:31:30Z</time>
      </trkpt>
      <trkpt lat="45.24153" lon="6.03332">
        <ele>2468.4528808594</ele>
        <time>2017-11-22T09:31:36Z</time>
      </trkpt>
      <trkpt lat="45.24151" lon="6.03339">
        <ele>2468.4528808594</ele>
        <time>2017-11-22T09:31:40Z</time>
      </trkpt>
      <trkpt lat="45.2415" lon="6.03346">
        <ele>2467.4528808594</ele>
        <time>2017-11-22T09:31:46Z</time>
      </trkpt>
      <trkpt lat="45.2415" lon="6.03353">
        <ele>2469.4528808594</ele>
        <time>2017-11-22T09:31:53Z</time>
      </trkpt>
      <trkpt lat="45.24148" lon="6.03359">
        <ele>2468.4528808594</ele>
        <time>2017-11-22T09:31:57Z</time>
      </trkpt>
      <trkpt lat="45.24151" lon="6.03365">
        <ele>2467.4528808594</ele>
        <time>2017-11-22T09:32:04Z</time>
      </trkpt>
      <trkpt lat="45.24148" lon="6.0337">
        <ele>2464.4528808594</ele>
        <time>2017-11-22T09:32:18Z</time>
      </trkpt>
      <trkpt lat="45.24144" lon="6.03375">
        <ele>2463.4528808594</ele>
        <time>2017-11-22T09:32:22Z</time>
      </trkpt>
      <trkpt lat="45.2414" lon="6.03379">
        <ele>2463.4528808594</ele>
        <time>2017-11-22T09:32:29Z</time>
      </trkpt>
      <trkpt lat="45.24142" lon="6.03387">
        <ele>2459.4528808594</ele>
        <time>2017-11-22T09:32:39Z</time>
      </trkpt>
      <trkpt lat="45.24145" lon="6.03393">
        <ele>2456.4528808594</ele>
        <time>2017-11-22T09:32:53Z</time>
      </trkpt>
      <trkpt lat="45.24141" lon="6.03389">
        <ele>2459.4528808594</ele>
        <time>2017-11-22T09:33:37Z</time>
      </trkpt>
      <trkpt lat="45.24137" lon="6.03393">
        <ele>2458.4528808594</ele>
        <time>2017-11-22T09:33:44Z</time>
      </trkpt>
      <trkpt lat="45.24132" lon="6.03395">
        <ele>2457.4528808594</ele>
        <time>2017-11-22T09:34:03Z</time>
      </trkpt>
      <trkpt lat="45.24131" lon="6.03403">
        <ele>2454.4528808594</ele>
        <time>2017-11-22T09:34:53Z</time>
      </trkpt>
      <trkpt lat="45.24136" lon="6.03406">
        <ele>2458.4528808594</ele>
        <time>2017-11-22T09:35:08Z</time>
      </trkpt>
      <trkpt lat="45.24138" lon="6.03411">
        <ele>2456.4528808594</ele>
        <time>2017-11-22T09:35:35Z</time>
      </trkpt>
      <trkpt lat="45.24137" lon="6.03417">
        <ele>2449.4528808594</ele>
        <time>2017-11-22T09:37:01Z</time>
      </trkpt>
      <trkpt lat="45.24142" lon="6.03419">
        <ele>2446.4528808594</ele>
        <time>2017-11-22T09:38:25Z</time>
      </trkpt>
      <trkpt lat="45.24138" lon="6.03423">
        <ele>2444.4528808594</ele>
        <time>2017-11-22T09:38:42Z</time>
      </trkpt>
      <trkpt lat="45.24137" lon="6.0343">
        <ele>2437.4528808594</ele>
        <time>2017-11-22T09:39:22Z</time>
      </trkpt>
      <trkpt lat="45.24139" lon="6.03436">
        <ele>2434.4528808594</ele>
        <time>2017-11-22T09:39:48Z</time>
      </trkpt>
      <trkpt lat="45.24139" lon="6.03445">
        <ele>2429.4528808594</ele>
        <time>2017-11-22T09:40:19Z</time>
      </trkpt>
      <trkpt lat="45.26448" lon="6.01507">
        <ele>1554.4549560547</ele>
        <time>2017-11-22T10:48:54Z</time>
      </trkpt>
      <trkpt lat="45.26443" lon="6.01507">
        <ele>1558.4549560547</ele>
        <time>2017-11-22T10:49:07Z</time>
      </trkpt>
    </trkseg>
  </trk>
</gpx>